PORTS® Data Listing: 8452660 Newport, RI

CO-OPS RAW PORTS DATA

************************      PRELIMINARY DATA      ************************** 

     THIS RAW DATA HAS NOT BEEN SUBJECT TO THE NATIONAL OCEAN SERVICE'S        
     QUALITY CONTROL OR QUALITY ASSURANCE PROCEDURES AND DOES NOT MEET         
     THE CRITERIA AND STANDARDS OF OFFICIAL NATIONAL OCEAN SERVICE             
     DATA.  IT IS RELEASED FOR LIMITED PUBLIC USE AS PRELIMINARY DATA TO       
     BE USED ONLY WITH APPROPRIATE CAUTION.                                    

************************      PRELIMINARY DATA      ************************** 


       CD   -   Calendar date
       T    -   Time
       TZ   -   Timezone
       PW   -   Predicted water level (feet above MLLW)
       OW   -   Observed water level (feet above MLLW)
       WS   -   Wind speed (knots)
       WD   -   Wind direction (degrees true)
       WG   -   Wind gust (knots)
       AT   -   Air temperature (degrees farenheit)
       WT   -   Water temperature (degrees farenheit)
       AP   -   Air pressure (millibars)
       SA   -   Salinty (PSU - Practical Salinity Units)
       SG   -   Specific gravity
       RH   -   Relative humidity
       AG   -   Air gap (feet)
       VI   -   Visibility (nautical miles)

       ** NOTE **
       A variable that has its data fields filled with "9"s, indicates that
       data was not collected for that sample period.
       **********


STATION NAME: Newport (8452660)
****************************************************************************************************
    CD       T    TZ    PW     OW    WS   WD   WG    AT    WT    AP    SA    SG     RH    AG   VI
****************************************************************************************************
2020/01/14 11:48 EST    3.24   3.48    3  126    6  39.7  38.1 1026.6 33.3  1.027 -99.9 -99.99 -9.99
2020/01/14 11:54 EST    3.14   3.45    4   86    6  39.2  38.3 1026.4 33.4  1.027 -99.9 -99.99 -9.99
2020/01/14 12:00 EST    3.03   3.29    3   67    6  39.0  38.3 1026.3 33.2  1.027 -99.9 -99.99 -9.99
2020/01/14 12:06 EST    2.92   3.17    3  162    3  39.6  38.3 1026.1 33.3  1.027 -99.9 -99.99 -9.99
2020/01/14 12:12 EST    2.81   3.08    4  161    7  39.6  38.3 1026.0 33.3  1.027 -99.9 -99.99 -9.99
2020/01/14 12:18 EST    2.69   2.92    2  131    6  39.6  38.3 1025.9 33.3  1.027 -99.9 -99.99 -9.99
2020/01/14 12:24 EST    2.57   2.82    5  118    8  39.2  38.3 1025.8 33.3  1.027 -99.9 -99.99 -9.99
2020/01/14 12:30 EST    2.45   2.61    4  127    5  39.6  38.3 1025.6 33.3  1.027 -99.9 -99.99 -9.99
2020/01/14 12:36 EST    2.33   2.54    6  135    7  39.6  38.3 1025.5 33.3  1.027 -99.9 -99.99 -9.99
2020/01/14 12:42 EST    2.20   2.38    5  140    7  39.4  38.3 1025.4 33.3  1.027 -99.9 -99.99 -9.99
2020/01/14 12:48 EST    2.08   2.29    4   90    7  39.0  38.3 1025.2 33.3  1.027 -99.9 -99.99 -9.99
2020/01/14 12:54 EST    1.95   2.19    7  124    9  39.0  38.3 1025.1 33.2  1.027 -99.9 -99.99 -9.99
2020/01/14 13:00 EST    1.82   1.82    5  106    9  39.2  38.3 1024.8 33.4  1.028 -99.9 -99.99 -9.99
2020/01/14 13:06 EST    1.70   1.81    7  110    8  39.2  38.3 1024.7 33.3  1.027 -99.9 -99.99 -9.99
2020/01/14 13:12 EST    1.57   1.69    6  119    9  39.2  38.3 1024.7 33.3  1.027 -99.9 -99.99 -9.99
2020/01/14 13:18 EST    1.44   1.61    5   99    9  39.2  38.3 1024.5 33.4  1.027 -99.9 -99.99 -9.99
2020/01/14 13:24 EST    1.32   1.48    5  127    9  39.2  38.3 1024.5 33.2  1.027 -99.9 -99.99 -9.99
2020/01/14 13:30 EST    1.20   1.20    7  143    9  39.4  38.3 1024.5 33.3  1.027 -99.9 -99.99 -9.99
2020/01/14 13:36 EST    1.08   1.21    6  132    9  39.4  38.3 1024.6 33.4  1.028 -99.9 -99.99 -9.99
2020/01/14 13:42 EST    0.96   0.98    4  124    8  39.4  38.3 1024.6 33.2  1.027 -99.9 -99.99 -9.99
2020/01/14 13:48 EST    0.85   0.95    4  107    6  39.6  38.3 1024.5 33.2  1.027 -99.9 -99.99 -9.99
2020/01/14 13:54 EST    0.74   0.81    3  115    5  39.9  38.3 1024.7 33.2  1.027 -99.9 -99.99 -9.99
2020/01/14 14:00 EST    0.63   0.64    2  135    4  39.9  38.3 1024.8 33.3  1.027 -99.9 -99.99 -9.99
2020/01/14 14:06 EST    0.53   0.63    4  113    4  40.1  38.3 1024.7 33.2  1.027 -99.9 -99.99 -9.99
2020/01/14 14:12 EST    0.43   0.53    4   82    6  40.1  38.3 1024.4 33.3  1.027 -99.9 -99.99 -9.99
2020/01/14 14:18 EST    0.34   0.38    6   93    7  40.1  38.3 1024.2 33.3  1.027 -99.9 -99.99 -9.99
2020/01/14 14:24 EST    0.25   0.37    4  113    8  40.3  38.3 1024.4 33.2  1.027 -99.9 -99.99 -9.99
2020/01/14 14:30 EST    0.17   0.20    7  116    8  40.1  38.3 1024.4 33.2  1.027 -99.9 -99.99 -9.99
2020/01/14 14:36 EST    0.09   0.28    3  121    8  40.3  38.3 1024.4 33.2  1.027 -99.9 -99.99 -9.99
2020/01/14 14:42 EST    0.02   0.23    4  121    7  40.1  38.3 1024.4 33.2  1.027 -99.9 -99.99 -9.99
2020/01/14 14:48 EST   -0.05   0.02    5  101    7  39.9  38.3 1024.0 33.2  1.027 -99.9 -99.99 -9.99
2020/01/14 14:54 EST   -0.11   0.15    7  102    9  39.9  38.3 1024.0 33.2  1.027 -99.9 -99.99 -9.99
2020/01/14 15:00 EST   -0.16   0.06    6   78    9  39.9  38.3 1023.9 33.2  1.027 -99.9 -99.99 -9.99
2020/01/14 15:06 EST   -0.21   0.08    6   91    9  40.1  38.3 1023.8 33.3  1.027 -99.9 -99.99 -9.99
2020/01/14 15:12 EST   -0.25   0.04    6  116    9  39.9  38.3 1023.7 33.2  1.027 -99.9 -99.99 -9.99
2020/01/14 15:18 EST   -0.29  -0.02    5  106    8  40.1  38.3 1023.6 33.3  1.027 -99.9 -99.99 -9.99
2020/01/14 15:24 EST   -0.32   0.06    6   89   10  39.9  38.3 1023.8 33.4  1.027 -99.9 -99.99 -9.99
2020/01/14 15:30 EST   -0.35   0.20    6   97    7  39.9  38.3 1023.9 33.4  1.028 -99.9 -99.99 -9.99
2020/01/14 15:36 EST   -0.37  -0.03    3  104    7  40.1  38.3 1023.9 33.3  1.027 -99.9 -99.99 -9.99
2020/01/14 15:42 EST   -0.39   0.08    4  108    4  40.1  38.3 1023.9 33.3  1.027 -99.9 -99.99 -9.99
2020/01/14 15:48 EST   -0.40   0.02    5  115    6  39.9  38.3 1023.8 33.4  1.028 -99.9 -99.99 -9.99
2020/01/14 15:54 EST   -0.41  -0.01    4  106    6  39.9  38.3 1023.8 33.3  1.027 -99.9 -99.99 -9.99
2020/01/14 16:00 EST   -0.41   0.14    5  116    6  39.9  38.3 1023.7 33.4  1.027 -99.9 -99.99 -9.99
2020/01/14 16:06 EST   -0.41  -0.04    4  136    6  39.9  38.3 1023.7 33.3  1.027 -99.9 -99.99 -9.99
2020/01/14 16:12 EST   -0.41   0.17    5  106    8  39.9  38.3 1023.7 33.3  1.027 -99.9 -99.99 -9.99
2020/01/14 16:18 EST   -0.40   0.10    6   95    6  39.7  38.5 1023.5 33.5  1.028 -99.9 -99.99 -9.99
2020/01/14 16:24 EST   -0.39   0.07    5   97    7  39.7  38.3 1023.7 33.3  1.027 -99.9 -99.99 -9.99
2020/01/14 16:30 EST   -0.38   0.15    5  102    5  39.7  38.5 1023.8 33.3  1.027 -99.9 -99.99 -9.99
2020/01/14 16:36 EST   -0.37   0.12    5  141    6  39.6  38.3 1023.9 33.4  1.027 -99.9 -99.99 -9.99
2020/01/14 16:42 EST   -0.35   0.07    5  130    7  39.7  38.3 1023.3 33.4  1.027 -99.9 -99.99 -9.99
2020/01/14 16:48 EST   -0.33   0.14    4  128    7  39.7  38.5 1023.5 33.4  1.027 -99.9 -99.99 -9.99
2020/01/14 16:54 EST   -0.31   0.20    5  128    8  39.6  38.5 1023.4 33.4  1.027 -99.9 -99.99 -9.99
2020/01/14 17:00 EST   -0.28   0.16    4  110    7  39.6  38.5 1023.4 33.3  1.027 -99.9 -99.99 -9.99
2020/01/14 17:06 EST   -0.26   0.23    5  129    6  39.6  38.5 1023.2 33.3  1.027 -99.9 -99.99 -9.99
2020/01/14 17:12 EST   -0.23   0.17    3   93    6  39.6  38.3 1023.1 33.4  1.027 -99.9 -99.99 -9.99
2020/01/14 17:18 EST   -0.20   0.24    6  116    8  39.6  38.3 1023.0 33.3  1.027 -99.9 -99.99 -9.99
2020/01/14 17:24 EST   -0.17   0.26    4  106    8  39.6  38.3 1023.1 33.3  1.027 -99.9 -99.99 -9.99
2020/01/14 17:30 EST   -0.14   0.26    4  103    5  39.6  38.3 1023.1 33.4  1.027 -99.9 -99.99 -9.99
2020/01/14 17:36 EST   -0.10   0.26    4   85    6  39.4  38.3 1023.1 33.3  1.027 -99.9 -99.99 -9.99
2020/01/14 17:42 EST   -0.07   0.32    4  104    5  39.6  38.5 1023.3 33.4  1.027 -99.9 -99.99 -9.99
2020/01/14 17:48 EST   -0.03   0.47    7  108    7  39.6  38.3 1022.4 33.3  1.027 -99.9 -99.99 -9.99
2020/01/14 17:54 EST    0.01   0.47    5  104   10  39.6  38.3 1022.5 33.4  1.027 -99.9 -99.99 -9.99
2020/01/14 18:00 EST    0.06   0.51    6   98   10  39.6  38.3 1022.2 33.5  1.028 -99.9 -99.99 -9.99
2020/01/14 18:06 EST    0.10   0.55    3   72    7  39.4  38.3 1022.8 33.4  1.027 -99.9 -99.99 -9.99
2020/01/14 18:12 EST    0.15   0.53    4   86    5  39.4  38.3 1022.6 33.3  1.027 -99.9 -99.99 -9.99
2020/01/14 18:18 EST    0.20   0.73    4   86    6  39.6  38.3 1022.3 33.3  1.027 -99.9 -99.99 -9.99
2020/01/14 18:24 EST    0.25   0.74    2   58    5  39.4  38.3 1022.9 33.3  1.027 -99.9 -99.99 -9.99
2020/01/14 18:30 EST    0.31   0.74    3   43    4  39.4  38.3 1022.9 33.3  1.027 -99.9 -99.99 -9.99
2020/01/14 18:36 EST    0.37   0.78    3   68    4  39.4  38.3 1022.6 33.4  1.027 -99.9 -99.99 -9.99
2020/01/14 18:42 EST    0.43   0.87    4   82    6  39.4  38.3 1022.2 33.3  1.027 -99.9 -99.99 -9.99
2020/01/14 18:48 EST    0.50   0.86    3   61    5  39.4  38.3 1022.3 33.5  1.028 -99.9 -99.99 -9.99
2020/01/14 18:54 EST    0.56   0.98    4   57    4  39.4  38.3 1022.2 33.4  1.027 -99.9 -99.99 -9.99
2020/01/14 19:00 EST    0.64   0.83    4   76    5  39.2  38.3 1021.8 33.5  1.028 -99.9 -99.99 -9.99
2020/01/14 19:06 EST    0.71   1.15    3   66    5  39.4  38.3 1021.9 33.4  1.027 -99.9 -99.99 -9.99
2020/01/14 19:12 EST    0.79   1.30    2   50    4  39.4  38.3 1021.9 33.4  1.027 -99.9 -99.99 -9.99
2020/01/14 19:18 EST    0.87   1.34    3   66    3  39.2  38.3 1022.0 33.4  1.027 -99.9 -99.99 -9.99
2020/01/14 19:24 EST    0.96   1.27    1   18    3  39.2  38.3 1022.2 33.4  1.027 -99.9 -99.99 -9.99
2020/01/14 19:30 EST    1.04   1.40    3   54    3  39.0  38.3 1022.1 33.4  1.027 -99.9 -99.99 -9.99
2020/01/14 19:36 EST    1.13   1.52    3   60    4  39.0  38.3 1022.1 33.4  1.027 -99.9 -99.99 -9.99
2020/01/14 19:42 EST    1.23   1.57    4   56    4  39.0  38.3 1021.9 33.4  1.027 -99.9 -99.99 -9.99
2020/01/14 19:48 EST    1.32   1.76    3   73    4  39.0  38.3 1021.9 33.4  1.027 -99.9 -99.99 -9.99
2020/01/14 19:54 EST    1.42   1.71    2   65    4  38.8  38.3 1022.0 33.4  1.027 -99.9 -99.99 -9.99
2020/01/14 20:00 EST    1.52   1.84    3   51    3  38.8  38.3 1021.9 33.3  1.027 -99.9 -99.99 -9.99
2020/01/14 20:06 EST    1.63   2.01    3   67    4  38.8  38.3 1021.8 33.3  1.027 -99.9 -99.99 -9.99
2020/01/14 20:12 EST    1.73   2.05    3   46    4  38.7  38.3 1021.8 33.3  1.027 -99.9 -99.99 -9.99
2020/01/14 20:18 EST    1.84   2.27    3   39    4  38.8  38.3 1021.8 33.3  1.027 -99.9 -99.99 -9.99
2020/01/14 20:24 EST    1.94   2.28    3   66    4  38.8  38.3 1021.5 33.4  1.027 -99.9 -99.99 -9.99
2020/01/14 20:30 EST    2.05   2.47    3   56    5  38.8  38.3 1021.5 33.3  1.027 -99.9 -99.99 -9.99
2020/01/14 20:36 EST    2.16   2.53    3   50    4  38.7  38.3 1021.5 33.4  1.027 -99.9 -99.99 -9.99
2020/01/14 20:42 EST    2.27   2.51    3   59    4  38.8  38.1 1021.4 33.4  1.027 -99.9 -99.99 -9.99
2020/01/14 20:48 EST    2.38   2.85    3   68    5  38.7  38.3 1021.3 33.5  1.028 -99.9 -99.99 -9.99
2020/01/14 20:54 EST    2.48   2.90    3   76    5  38.7  38.3 1021.2 33.5  1.028 -99.9 -99.99 -9.99
2020/01/14 21:00 EST    2.59   3.08    3   80    5  38.8  38.3 1021.2 33.5  1.028 -99.9 -99.99 -9.99
2020/01/14 21:06 EST    2.69   3.15    2   99    4  38.8  38.3 1021.3 33.5  1.028 -99.9 -99.99 -9.99
2020/01/14 21:12 EST    2.80   3.26    2   73    4  39.0  38.3 1021.3 33.5  1.028 -99.9 -99.99 -9.99
2020/01/14 21:18 EST    2.89   3.42    4   67    5  39.0  38.3 1021.3 33.5  1.028 -99.9 -99.99 -9.99
2020/01/14 21:24 EST    2.99   3.44    2   47    4  39.2  38.3 1021.2 33.5  1.028 -99.9 -99.99 -9.99
2020/01/14 21:30 EST    3.08   3.56    2   70    3  39.0  38.3 1021.1 33.5  1.028 -99.9 -99.99 -9.99
2020/01/14 21:36 EST    3.17   3.61    2   77    4  39.0  38.3 1021.1 33.5  1.028 -99.9 -99.99 -9.99
2020/01/14 21:42 EST    3.25   3.64    2  116    3  39.2  38.3 1021.0 33.5  1.028 -99.9 -99.99 -9.99
2020/01/14 21:48 EST    3.33   3.78    3  105    4  39.4  38.3 1020.9 33.5  1.028 -99.9 -99.99 -9.99
2020/01/14 21:54 EST    3.40   3.89    3   93    4  39.2  38.3 1020.9 33.4  1.028 -99.9 -99.99 -9.99
2020/01/14 22:00 EST    3.47   3.92    2   77    5  39.4  38.3 1020.9 33.5  1.028 -99.9 -99.99 -9.99
2020/01/14 22:06 EST    3.53   3.91    3   92    4  39.4  38.3 1020.8 33.5  1.028 -99.9 -99.99 -9.99
2020/01/14 22:12 EST    3.59   3.97    2   96    4  39.4  38.3 1020.8 33.5  1.028 -99.9 -99.99 -9.99
2020/01/14 22:18 EST    3.64   4.15    3   85    4  39.4  38.3 1020.8 33.5  1.028 -99.9 -99.99 -9.99
2020/01/14 22:24 EST    3.68   4.18    3   96    4  39.4  38.3 1020.7 33.5  1.028 -99.9 -99.99 -9.99
2020/01/14 22:30 EST    3.71   4.20    3  101    4  39.4  38.3 1020.6 33.5  1.028 -99.9 -99.99 -9.99
2020/01/14 22:36 EST    3.74   4.28    3   81    4  39.4  38.3 1020.5 33.5  1.028 -99.9 -99.99 -9.99
2020/01/14 22:42 EST    3.75   4.29    2   68    4  39.4  38.3 1020.4 33.5  1.028 -99.9 -99.99 -9.99
2020/01/14 22:48 EST    3.76   4.28    3   77    3  39.4  38.3 1020.3 33.5  1.028 -99.9 -99.99 -9.99
2020/01/14 22:54 EST    3.77   4.30    3   76    4  39.4  38.3 1020.2 33.5  1.028 -99.9 -99.99 -9.99
2020/01/14 23:00 EST    3.76   4.32    3   72    4  39.6  38.3 1020.2 33.5  1.028 -99.9 -99.99 -9.99
2020/01/14 23:06 EST    3.75   4.24    3   67    4  39.6  38.3 1020.1 33.5  1.028 -99.9 -99.99 -9.99
2020/01/14 23:12 EST    3.73   4.21    3   64    4  39.6  38.3 1020.0 33.5  1.028 -99.9 -99.99 -9.99
2020/01/14 23:18 EST    3.70   4.24    3   53    4  39.6  38.3 1020.0 33.5  1.028 -99.9 -99.99 -9.99
2020/01/14 23:24 EST    3.66   4.22    4   52    4  39.6  38.3 1019.9 33.5  1.028 -99.9 -99.99 -9.99
2020/01/14 23:30 EST    3.62   4.23    3   66    5  39.6  38.3 1019.8 33.5  1.028 -99.9 -99.99 -9.99
2020/01/14 23:36 EST    3.57   4.11    3   36    4  39.7  38.3 1019.7 33.4  1.028 -99.9 -99.99 -9.99
2020/01/14 23:42 EST    3.51   4.03    3   72    4  39.6  38.3 1019.6 33.4  1.027 -99.9 -99.99 -9.99
2020/01/14 23:48 EST    3.45   4.07    3   61    4  39.7  38.3 1019.5 33.4  1.027 -99.9 -99.99 -9.99
2020/01/14 23:54 EST    3.38   4.00    3   67    4  39.6  38.3 1019.4 33.4  1.027 -99.9 -99.99 -9.99
2020/01/15 00:00 EST    3.30   3.90    4   94    5  39.6  38.3 1019.2 33.4  1.027 -99.9 -99.99 -9.99
2020/01/15 00:06 EST    3.22   3.78    2   73    4  39.6  38.3 1019.2 33.3  1.027 -99.9 -99.99 -9.99
2020/01/15 00:12 EST    3.13   3.69    1   84    2  39.7  38.1 1019.1 33.4  1.027 -99.9 -99.99 -9.99
2020/01/15 00:18 EST    3.03   3.64    2  120    2  39.7  38.1 1018.9 33.3  1.027 -99.9 -99.99 -9.99
2020/01/15 00:24 EST    2.93   3.54    3  134    4  39.9  38.1 1018.7 33.3  1.027 -99.9 -99.99 -9.99
2020/01/15 00:30 EST    2.83   3.45    3  130    5  40.1  38.1 1018.6 33.2  1.027 -99.9 -99.99 -9.99
2020/01/15 00:36 EST    2.72   3.28    4  132    4  40.1  38.3 1018.5 33.3  1.027 -99.9 -99.99 -9.99
2020/01/15 00:42 EST    2.61   3.24    4  138    5  40.1  38.1 1018.5 33.2  1.027 -99.9 -99.99 -9.99
2020/01/15 00:48 EST    2.49   3.15    2  122    4  40.1  38.3 1018.5 33.2  1.027 -99.9 -99.99 -9.99
2020/01/15 00:54 EST    2.38   3.03    3  132    4  40.1  38.3 1018.5 33.2  1.027 -99.9 -99.99 -9.99
2020/01/15 01:00 EST    2.26   2.90    3  135    5  40.3  38.1 1018.4 33.3  1.027 -99.9 -99.99 -9.99
2020/01/15 01:06 EST    2.13   2.81    3  144    4  40.3  38.3 1018.4 33.3  1.027 -99.9 -99.99 -9.99
2020/01/15 01:12 EST    2.01   2.70    3  139    4  40.5  38.3 1018.4 33.2  1.027 -99.9 -99.99 -9.99
2020/01/15 01:18 EST    1.89   2.55    2  148    5  40.5  38.3 1018.4 33.2  1.027 -99.9 -99.99 -9.99
2020/01/15 01:24 EST    1.76   2.51    2  187    3  40.5  38.1 1018.5 33.3  1.027 -99.9 -99.99 -9.99
2020/01/15 01:30 EST    1.64   2.38    2  153    3  40.6  38.1 1018.5 33.3  1.027 -99.9 -99.99 -9.99
2020/01/15 01:36 EST    1.51   2.26    2  170    4  40.8  38.1 1018.6 33.3  1.027 -99.9 -99.99 -9.99
2020/01/15 01:42 EST    1.39   2.07    2  198    3  40.8  38.3 1018.7 33.2  1.027 -99.9 -99.99 -9.99
2020/01/15 01:48 EST    1.27   2.04    2  203    3  40.8  38.3 1018.7 33.2  1.027 -99.9 -99.99 -9.99
2020/01/15 01:54 EST    1.15   1.89    2  178    3  40.8  38.3 1018.7 33.3  1.027 -99.9 -99.99 -9.99
2020/01/15 02:00 EST    1.03   1.72    4  253    5  41.0  38.1 1018.8 33.3  1.027 -99.9 -99.99 -9.99
2020/01/15 02:06 EST    0.92   1.68    2  195    5  41.0  38.1 1018.8 33.2  1.027 -99.9 -99.99 -9.99
2020/01/15 02:12 EST    0.81   1.49    2  277    3  41.2  38.3 1018.9 33.2  1.027 -99.9 -99.99 -9.99
2020/01/15 02:18 EST    0.70   1.27    1  303    4  41.2  38.1 1018.9 33.4  1.027 -99.9 -99.99 -9.99
2020/01/15 02:24 EST    0.60   1.33    3  288    3  41.2  38.3 1018.8 33.3  1.027 -99.9 -99.99 -9.99
2020/01/15 02:30 EST    0.50   1.22    1   63    3  41.2  38.1 1018.7 33.3  1.027 -99.9 -99.99 -9.99
2020/01/15 02:36 EST    0.41   1.04    2   14    4  41.0  38.3 1018.6 33.3  1.027 -99.9 -99.99 -9.99
2020/01/15 02:42 EST    0.32   0.95    2  320    3  41.0  38.1 1018.6 33.3  1.027 -99.9 -99.99 -9.99
2020/01/15 02:48 EST    0.24   0.80    0   29    2  41.0  38.3 1018.4 33.2  1.027 -99.9 -99.99 -9.99
2020/01/15 02:54 EST    0.16   0.79    1  200    1  41.0  38.1 1018.4 33.4  1.028 -99.9 -99.99 -9.99
2020/01/15 03:00 EST    0.09   0.70    1  238    2  41.2  38.1 1018.4 33.2  1.027 -99.9 -99.99 -9.99
2020/01/15 03:06 EST    0.02   0.63    3  207    3  41.2  38.3 1018.3 33.2  1.027 -99.9 -99.99 -9.99
2020/01/15 03:12 EST   -0.04   0.51    3  186    3  41.2  38.1 1018.1 33.4  1.027 -99.9 -99.99 -9.99
2020/01/15 03:18 EST   -0.09   0.56    4  203    4  41.4  38.3 1018.0 33.4  1.027 -99.9 -99.99 -9.99
2020/01/15 03:24 EST   -0.14   0.45    4  176    4  41.7  38.1 1017.9 33.2  1.027 -99.9 -99.99 -9.99
2020/01/15 03:30 EST   -0.18   0.38    4  174    5  41.7  38.1 1017.9 33.3  1.027 -99.9 -99.99 -9.99
2020/01/15 03:36 EST   -0.21   0.39    3  221    5  41.7  38.3 1018.1 33.5  1.028 -99.9 -99.99 -9.99
2020/01/15 03:42 EST   -0.24   0.37    3  207    4  41.7  38.3 1018.0 33.5  1.028 -99.9 -99.99 -9.99
2020/01/15 03:48 EST   -0.26   0.37    2  176    4  41.9  38.3 1017.9 33.3  1.027 -99.9 -99.99 -9.99
2020/01/15 03:54 EST   -0.28   0.30    4  192    4  42.3  38.3 1017.9 33.4  1.027 -99.9 -99.99 -9.99
2020/01/15 04:00 EST   -0.29   0.35    4  213    5  42.4  38.3 1017.9 33.4  1.027 -99.9 -99.99 -9.99
2020/01/15 04:06 EST   -0.30   0.32    4  210    5  42.6  38.3 1017.8 33.4  1.027 -99.9 -99.99 -9.99
2020/01/15 04:12 EST   -0.30   0.27    4  233    5  43.0  38.3 1017.9 33.5  1.028 -99.9 -99.99 -9.99
2020/01/15 04:18 EST   -0.30   0.33    4  234    5  42.8  38.3 1018.0 33.4  1.027 -99.9 -99.99 -9.99
2020/01/15 04:24 EST   -0.30   0.30    5  236    6  42.8  38.3 1018.0 33.4  1.027 -99.9 -99.99 -9.99
2020/01/15 04:30 EST   -0.29   0.30    5  244    6  42.6  38.3 1018.1 33.4  1.027 -99.9 -99.99 -9.99
2020/01/15 04:36 EST   -0.27   0.40    5  250    7  42.8  38.3 1018.2 33.6  1.028 -99.9 -99.99 -9.99
2020/01/15 04:42 EST   -0.26   0.37    6  257    8  42.8  38.3 1018.3 33.5  1.028 -99.9 -99.99 -9.99
2020/01/15 04:48 EST   -0.24   0.41    5  249    7  42.8  38.3 1018.3 33.6  1.028 -99.9 -99.99 -9.99
2020/01/15 04:54 EST   -0.21   0.45    5  260    7  42.8  38.3 1018.3 33.6  1.028 -99.9 -99.99 -9.99
2020/01/15 05:00 EST   -0.19   0.40    6  259    8  43.0  38.3 1018.4 33.5  1.028 -99.9 -99.99 -9.99
2020/01/15 05:06 EST   -0.16   0.52    8  268   10  42.8  38.3 1018.4 33.6  1.028 -99.9 -99.99 -9.99
2020/01/15 05:12 EST   -0.13   0.50    7  265    9  42.6  38.3 1018.4 33.5  1.028 -99.9 -99.99 -9.99
2020/01/15 05:18 EST   -0.10   0.50    6  260    7  42.6  38.3 1018.3 33.9  1.028 -99.9 -99.99 -9.99
2020/01/15 05:24 EST   -0.07   0.58    6  246    8  42.6  38.3 1018.1 33.6  1.028 -99.9 -99.99 -9.99
2020/01/15 05:30 EST   -0.03   0.54    5  252    7  42.6  38.3 1018.1 33.6  1.028 -99.9 -99.99 -9.99
2020/01/15 05:36 EST    0.00   0.63    4  252    7  42.6  38.3 1018.2 33.8  1.028 -99.9 -99.99 -9.99
2020/01/15 05:42 EST    0.04   0.69    5  259    5  42.6  38.3 1018.2 33.8  1.028 -99.9 -99.99 -9.99
2020/01/15 05:48 EST    0.08   0.62    3  278    8  42.6  38.3 1018.2 33.7  1.028 -99.9 -99.99 -9.99
2020/01/15 05:54 EST    0.12   0.77    5  286    6  42.4  38.3 1018.3 33.6  1.028 -99.9 -99.99 -9.99
2020/01/15 06:00 EST    0.16   0.86    9  280   11  42.3  38.3 1018.2 33.6  1.028 -99.9 -99.99 -9.99
2020/01/15 06:06 EST    0.21   0.86    8  285   11  42.4  38.3 1018.3 33.6  1.028 -99.9 -99.99 -9.99
2020/01/15 06:12 EST    0.25   0.97   10  289   11  42.3  38.3 1018.3 33.5  1.028 -99.9 -99.99 -9.99
2020/01/15 06:18 EST    0.30   0.97    7  306   12  42.4  38.3 1018.5 33.6  1.028 -99.9 -99.99 -9.99
2020/01/15 06:24 EST    0.35   0.95    8  311   10  42.3  38.3 1018.6 33.6  1.028 -99.9 -99.99 -9.99
2020/01/15 06:30 EST    0.39   1.02    9  308   12  42.3  38.3 1018.8 33.5  1.028 -99.9 -99.99 -9.99
2020/01/15 06:36 EST    0.45   1.07   10  306   12  42.1  38.3 1018.9 33.5  1.028 -99.9 -99.99 -9.99
2020/01/15 06:42 EST    0.50   1.16    8  311   12  42.1  38.3 1018.9 33.5  1.028 -99.9 -99.99 -9.99
2020/01/15 06:48 EST    0.56   1.24    6  309   10  41.9  38.3 1018.8 33.6  1.028 -99.9 -99.99 -9.99
2020/01/15 06:54 EST    0.61   1.20    5  316    8  41.9  38.1 1018.9 33.6  1.028 -99.9 -99.99 -9.99
2020/01/15 07:00 EST    0.67   1.42    5  292    6  41.7  38.1 1019.0 33.5  1.028 -99.9 -99.99 -9.99
2020/01/15 07:06 EST    0.74   1.43    4  304    8  41.7  38.1 1019.0 33.6  1.028 -99.9 -99.99 -9.99
2020/01/15 07:12 EST    0.80   1.39    3  309    6  41.7  38.1 1019.0 33.6  1.028 -99.9 -99.99 -9.99
2020/01/15 07:18 EST    0.87   1.61    4  310    5  41.7  38.1 1019.0 33.6  1.028 -99.9 -99.99 -9.99
2020/01/15 07:24 EST    0.94   1.66    3  321    5  41.5  38.1 1019.2 33.6  1.028 -99.9 -99.99 -9.99
2020/01/15 07:30 EST    1.01   1.68    3  312    5  41.5  38.1 1019.3 33.6  1.028 -99.9 -99.99 -9.99
2020/01/15 07:36 EST    1.09   1.83    3  312    4  41.5  38.3 1019.3 33.5  1.028 -99.9 -99.99 -9.99
2020/01/15 07:42 EST    1.17   1.91    2  314    4  41.5  38.3 1019.5 33.5  1.028 -99.9 -99.99 -9.99
2020/01/15 07:48 EST    1.25   1.93    3  290    4  41.7  38.3 1019.5 33.5  1.028 -99.9 -99.99 -9.99
2020/01/15 07:54 EST    1.33   2.14    2  290    4  41.9  38.3 1019.6 33.5  1.028 -99.9 -99.99 -9.99
2020/01/15 08:00 EST    1.42   2.16    2  263    3  41.9  38.3 1019.6 33.5  1.028 -99.9 -99.99 -9.99
2020/01/15 08:06 EST    1.51   2.17    2  296    4  41.9  38.3 1019.6 33.6  1.028 -99.9 -99.99 -9.99
2020/01/15 08:12 EST    1.60   2.40    3  327    5  42.3  38.3 1019.6 33.5  1.028 -99.9 -99.99 -9.99
2020/01/15 08:18 EST    1.69   2.46    6  319    8  43.0  38.3 1019.7 33.5  1.028 -99.9 -99.99 -9.99
2020/01/15 08:24 EST    1.78   2.52    7  320   12  43.5  38.3 1019.7 33.5  1.028 -99.9 -99.99 -9.99
2020/01/15 08:30 EST    1.88   2.72   12  316   17  43.9  38.3 1019.6 33.5  1.028 -99.9 -99.99 -9.99
2020/01/15 08:36 EST    1.97   2.82   16  311   20  43.9  38.3 1019.6 33.5  1.028 -99.9 -99.99 -9.99
2020/01/15 08:42 EST    2.07   2.82   13  308   20  43.9  38.3 1019.7 33.6  1.028 -99.9 -99.99 -9.99
2020/01/15 08:48 EST    2.17   3.00   15  311   20  44.1  38.3 1019.8 33.5  1.028 -99.9 -99.99 -9.99
2020/01/15 08:54 EST    2.27   3.10   13  313   19  44.4  38.1 1019.9 33.6  1.028 -99.9 -99.99 -9.99
2020/01/15 09:00 EST    2.37   3.12   12  312   19  44.4  38.1 1020.0 33.5  1.028 -99.9 -99.99 -9.99
2020/01/15 09:06 EST    2.47   3.25   13  307   18  44.8  38.1 1020.1 33.5  1.028 -99.9 -99.99 -9.99
2020/01/15 09:12 EST    2.57   3.34   11  305   18  45.0  38.1 1020.1 33.5  1.028 -99.9 -99.99 -9.99
2020/01/15 09:18 EST    2.67   3.42   15  311   19  45.0  38.1 1020.1 33.5  1.028 -99.9 -99.99 -9.99
2020/01/15 09:24 EST    2.76   3.51   15  310   18  45.0  38.1 1020.2 33.5  1.028 -99.9 -99.99 -9.99
2020/01/15 09:30 EST    2.86   3.65   11  306   18  45.0  38.1 1020.2 33.5  1.028 -99.9 -99.99 -9.99
2020/01/15 09:36 EST    2.95   3.68   12  307   19  45.0  38.1 1020.3 33.5  1.028 -99.9 -99.99 -9.99
2020/01/15 09:42 EST    3.04   3.76   12  307   19  45.0  38.3 1020.3 33.4  1.028 -99.9 -99.99 -9.99
2020/01/15 09:48 EST    3.13   3.82   11  312   19  45.1  38.3 1020.4 33.4  1.027 -99.9 -99.99 -9.99
2020/01/15 09:54 EST    3.21   3.84   10  309   15  45.1  38.3 1020.5 33.4  1.028 -99.9 -99.99 -9.99
2020/01/15 10:00 EST    3.29   3.93   12  299   17  45.1  38.1 1020.4 33.4  1.027 -99.9 -99.99 -9.99
2020/01/15 10:06 EST    3.36   3.95   11  306   17  45.1  38.3 1020.5 33.4  1.027 -99.9 -99.99 -9.99
2020/01/15 10:12 EST    3.43   3.98   10  306   14  45.3  38.3 1020.5 33.4  1.027 -99.9 -99.99 -9.99
2020/01/15 10:18 EST    3.50   4.04    9  296   15  45.5  38.3 1020.5 33.4  1.027 -99.9 -99.99 -9.99
2020/01/15 10:24 EST    3.56   4.13    9  297   13  45.7  38.3 1020.5 33.4  1.027 -99.9 -99.99 -9.99
2020/01/15 10:30 EST    3.61   4.03   10  292   13  45.7  38.3 1020.4 33.4  1.027 -99.9 -99.99 -9.99
2020/01/15 10:36 EST    3.66   4.18    8  291   15  45.9  38.3 1020.3 33.4  1.027 -99.9 -99.99 -9.99
2020/01/15 10:42 EST    3.70   4.19    9  308   12  45.9  38.3 1020.2 33.4  1.027 -99.9 -99.99 -9.99
2020/01/15 10:48 EST    3.73   4.15    9  308   12  46.0  38.3 1020.2 33.4  1.027 -99.9 -99.99 -9.99
2020/01/15 10:54 EST    3.76   4.19   10  310   12  46.2  38.3 1020.1 33.4  1.027 -99.9 -99.99 -9.99
2020/01/15 11:00 EST    3.78   4.22   10  312   12  46.0  38.3 1020.0 33.4  1.027 -99.9 -99.99 -9.99
2020/01/15 11:06 EST    3.80   4.17   11  319   14  46.2  38.3 1020.0 33.4  1.028 -99.9 -99.99 -9.99
2020/01/15 11:12 EST    3.80   4.19    9  319   14  46.4  38.3 1020.0 33.4  1.028 -99.9 -99.99 -9.99
2020/01/15 11:18 EST    3.80   4.17   11  310   16  46.2  38.3 1020.0 33.4  1.027 -99.9 -99.99 -9.99
2020/01/15 11:24 EST    3.79   4.17   10  317   15  46.6  38.3 1019.9 33.4  1.028 -99.9 -99.99 -9.99
2020/01/15 11:30 EST    3.78   4.17   11  312   14  46.4  38.3 1019.9 33.4  1.027 -99.9 -99.99 -9.99
2020/01/15 11:36 EST    3.76   4.12   11  316   14  46.4  38.3 1019.9 33.4  1.028 -99.9 -99.99 -9.99
2020/01/15 11:42 EST    3.73   4.09   10  313   15  46.6  38.3 1019.8 33.4  1.027 -99.9 -99.99 -9.99
2020/01/15 11:48 EST    3.69   3.99   10  313   14  46.8  38.3 1019.7 33.4  1.027 -99.9 -99.99 -9.99
2020/01/15 11:54 EST    3.64   3.98    9  315   15  46.9  38.5 1019.7 33.3  1.027 -99.9 -99.99 -9.99
2020/01/15 12:00 EST    3.59   3.91   11  313   13  46.8  38.3 1019.6 33.4  1.027 -99.9 -99.99 -9.99
2020/01/15 12:06 EST    3.53   3.82    9  319   14  46.9  38.5 1019.5 33.2  1.027 -99.9 -99.99 -9.99
2020/01/15 12:12 EST    3.47   3.76   10  315   12  46.9  38.5 1019.6 33.2  1.027 -99.9 -99.99 -9.99
2020/01/15 12:18 EST    3.40   3.70   10  311   13  46.9  38.5 1019.6 33.3  1.027 -99.9 -99.99 -9.99
2020/01/15 12:24 EST    3.32   3.61    9  319   12  47.1  38.5 1019.5 33.2  1.027 -99.9 -99.99 -9.99
2020/01/15 12:30 EST    3.24   3.61   10  314   14  47.1  38.5 1019.4 33.2  1.027 -99.9 -99.99 -9.99
2020/01/15 12:36 EST    3.15   3.50   12  309   14  46.8  38.7 1019.3 33.1  1.027 -99.9 -99.99 -9.99
2020/01/15 12:42 EST    3.06   3.44   10  320   14  47.1  38.5 1019.3 33.2  1.027 -99.9 -99.99 -9.99
2020/01/15 12:48 EST    2.96   3.38   10  309   13  46.9  38.5 1019.3 33.2  1.027 -99.9 -99.99 -9.99
2020/01/15 12:54 EST    2.86   3.23    7  311   12  47.1  38.7 1019.3 33.1  1.027 -99.9 -99.99 -9.99
2020/01/15 13:00 EST    2.75   3.17    6  307    9  47.7  38.7 1019.2 33.1  1.027 -99.9 -99.99 -9.99
2020/01/15 13:06 EST    2.64   3.01    7  316    9  47.3  38.5 1019.0 33.2  1.027 -99.9 -99.99 -9.99
2020/01/15 13:12 EST    2.53   2.85    8  317   11  47.5  38.7 1018.9 33.1  1.027 -99.9 -99.99 -9.99
2020/01/15 13:18 EST    2.42   2.80    9  314   11  47.7  38.5 1018.9 33.2  1.027 -99.9 -99.99 -9.99
2020/01/15 13:24 EST    2.30   2.70    7  323   11  47.7  38.5 1018.8 33.2  1.027 -99.9 -99.99 -9.99
2020/01/15 13:30 EST    2.18   2.59    8  314   11  47.5  38.5 1018.7 33.3  1.027 -99.9 -99.99 -9.99
2020/01/15 13:36 EST    2.06   2.45    8  314   11  47.5  38.7 1018.6 33.1  1.027 -99.9 -99.99 -9.99
2020/01/15 13:42 EST    1.94   2.40    4  318   10  47.8  38.7 1018.6 33.1  1.027 -99.9 -99.99 -9.99
2020/01/15 13:48 EST    1.81   2.30    5  322    9  47.8  38.7 1018.7 33.2  1.027 -99.9 -99.99 -9.99
2020/01/15 13:54 EST    1.69   2.10    8  314   10  47.7  38.7 1018.8 33.1  1.027 -99.9 -99.99 -9.99
2020/01/15 14:00 EST    1.57   2.05    9  310   11  47.7  38.7 1018.8 33.1  1.027 -99.9 -99.99 -9.99
2020/01/15 14:06 EST    1.45   1.90    8  316   12  47.7  38.7 1018.9 33.1  1.027 -99.9 -99.99 -9.99
2020/01/15 14:12 EST    1.33   1.77    9  317   12  47.7  38.7 1018.9 33.1  1.027 -99.9 -99.99 -9.99
2020/01/15 14:18 EST    1.22   1.72    7  318   11  47.8  38.7 1019.0 33.1  1.027 -99.9 -99.99 -9.99
2020/01/15 14:24 EST    1.10   1.60    8  314   10  47.7  38.7 1019.1 33.1  1.027 -99.9 -99.99 -9.99
2020/01/15 14:30 EST    0.99   1.50    9  315   12  47.8  38.7 1019.2 33.1  1.027 -99.9 -99.99 -9.99
2020/01/15 14:36 EST    0.88   1.40    7  318   11  47.8  38.7 1019.2 33.1  1.027 -99.9 -99.99 -9.99
2020/01/15 14:42 EST    0.78   1.26    6  325   11  48.0  38.7 1019.4 33.2  1.027 -99.9 -99.99 -9.99
2020/01/15 14:48 EST    0.67   1.18    7  316    9  48.0  38.7 1019.4 33.1  1.027 -99.9 -99.99 -9.99
2020/01/15 14:54 EST    0.58   1.07    9  313   11  48.0  38.7 1019.3 33.1  1.027 -99.9 -99.99 -9.99
2020/01/15 15:00 EST    0.49   0.99   10  314   11  48.0  38.7 1019.3 33.1  1.027 -99.9 -99.99 -9.99
2020/01/15 15:06 EST    0.40   0.90    6  323   11  48.0  38.7 1019.5 33.1  1.027 -99.9 -99.99 -9.99
2020/01/15 15:12 EST    0.32   0.82    7  313    9  47.8  38.7 1019.5 33.1  1.027 -99.9 -99.99 -9.99
2020/01/15 15:18 EST    0.24   0.74    6  318    9  48.2  38.7 1019.3 33.1  1.027 -99.9 -99.99 -9.99
2020/01/15 15:24 EST    0.17   0.71    6  319    8  48.2  38.8 1019.3 33.0  1.027 -99.9 -99.99 -9.99
2020/01/15 15:30 EST    0.10   0.68    5  322    9  48.0  38.7 1019.2 33.1  1.027 -99.9 -99.99 -9.99
2020/01/15 15:36 EST    0.04   0.53    4  344    9  48.0  38.7 1019.1 33.1  1.027 -99.9 -99.99 -9.99
2020/01/15 15:42 EST   -0.02   0.50    4  300    6  48.0  38.8 1019.2 33.0  1.027 -99.9 -99.99 -9.99
2020/01/15 15:48 EST   -0.07   0.50    5  291    8  47.7  38.8 1019.2 33.0  1.027 -99.9 -99.99 -9.99
2020/01/15 15:54 EST   -0.11   0.48    5  298    7  47.5  38.8 1019.2 33.2  1.027 -99.9 -99.99 -9.99
2020/01/15 16:00 EST   -0.15   0.53    9  268   10  47.5  38.7 1019.2 33.4  1.027 -99.9 -99.99 -9.99
2020/01/15 16:06 EST   -0.18   0.46    6  283   10  47.1  38.7 1019.3 33.3  1.027 -99.9 -99.99 -9.99
2020/01/15 16:12 EST   -0.21   0.38    7  288    9  47.1  38.7 1019.5 33.3  1.027 -99.9 -99.99 -9.99
2020/01/15 16:18 EST   -0.23   0.40    8  284   10  47.1  38.7 1019.5 33.3  1.027 -99.9 -99.99 -9.99
2020/01/15 16:24 EST   -0.25   0.38    8  281    9  46.6  38.7 1019.6 33.3  1.027 -99.9 -99.99 -9.99
2020/01/15 16:30 EST   -0.26   0.34    7  287    9  46.6  38.7 1019.6 33.3  1.027 -99.9 -99.99 -9.99
2020/01/15 16:36 EST   -0.27   0.42    8  278    9  46.0  38.7 1019.6 33.3  1.027 -99.9 -99.99 -9.99
2020/01/15 16:42 EST   -0.28   0.42    6  276    8  45.7  38.7 1019.6 33.3  1.027 -99.9 -99.99 -9.99
2020/01/15 16:48 EST   -0.28   0.41    5  278    6  45.5  38.7 1019.7 33.3  1.027 -99.9 -99.99 -9.99
2020/01/15 16:54 EST   -0.28   0.48    4  288    5  45.5  38.7 1019.9 33.3  1.027 -99.9 -99.99 -9.99
2020/01/15 17:00 EST   -0.28   0.46    4  292    5  45.5  38.7 1020.0 33.4  1.027 -99.9 -99.99 -9.99
2020/01/15 17:06 EST   -0.27   0.49    4  301    6  45.3  38.7 1020.1 33.3  1.027 -99.9 -99.99 -9.99
2020/01/15 17:12 EST   -0.26   0.51    5  295    8  45.3  38.7 1020.3 33.3  1.027 -99.9 -99.99 -9.99
2020/01/15 17:18 EST   -0.25   0.46    5  286    9  45.1  38.7 1020.3 33.2  1.027 -99.9 -99.99 -9.99
2020/01/15 17:24 EST   -0.23   0.46    5  281    6  44.6  38.7 1020.3 33.3  1.027 -99.9 -99.99 -9.99
2020/01/15 17:30 EST   -0.22   0.50    4  301    8  45.3  38.7 1020.3 33.3  1.027 -99.9 -99.99 -9.99
2020/01/15 17:36 EST   -0.20   0.43    6  289    8  45.3  38.7 1020.4 33.3  1.027 -99.9 -99.99 -9.99
2020/01/15 17:42 EST   -0.18   0.50    5  282    8  44.6  38.7 1020.4 33.3  1.027 -99.9 -99.99 -9.99
2020/01/15 17:48 EST   -0.16   0.47    5  283    6  44.4  38.7 1020.2 33.3  1.027 -99.9 -99.99 -9.99
2020/01/15 17:54 EST   -0.14   0.52    6  289    7  44.8  38.7 1020.2 33.3  1.027 -99.9 -99.99 -9.99
2020/01/15 18:00 EST   -0.11   0.56    5  279    7  44.4  38.7 1020.2 33.2  1.027 -99.9 -99.99 -9.99
2020/01/15 18:06 EST   -0.09   0.53    5  279    6  44.1  38.7 1020.3 33.2  1.027 -99.9 -99.99 -9.99
2020/01/15 18:12 EST   -0.06   0.53    7  278    7  44.1  38.7 1020.3 33.3  1.027 -99.9 -99.99 -9.99
2020/01/15 18:18 EST   -0.03   0.47    7  278    8  44.1  38.7 1020.2 33.2  1.027 -99.9 -99.99 -9.99
2020/01/15 18:24 EST   -0.00   0.51    6  283    7  44.2  38.7 1020.3 33.2  1.027 -99.9 -99.99 -9.99
2020/01/15 18:30 EST    0.03   0.53    5  284    7  44.2  38.7 1020.3 33.2  1.027 -99.9 -99.99 -9.99
2020/01/15 18:36 EST    0.06   0.58    5  280    6  43.9  38.7 1020.4 33.2  1.027 -99.9 -99.99 -9.99
2020/01/15 18:42 EST    0.09   0.54    3  284    6  43.7  38.7 1020.4 33.3  1.027 -99.9 -99.99 -9.99
2020/01/15 18:48 EST    0.13   0.54    3  286    4  43.5  38.7 1020.4 33.2  1.027 -99.9 -99.99 -9.99
2020/01/15 18:54 EST    0.17   0.59    2  314    3  43.3  38.5 1020.5 33.2  1.027 -99.9 -99.99 -9.99
2020/01/15 19:00 EST    0.21   0.55    1  319    2  42.8  38.5 1020.5 33.2  1.027 -99.9 -99.99 -9.99
2020/01/15 19:06 EST    0.25   0.63    1  317    2  42.8  38.3 1020.6 33.2  1.027 -99.9 -99.99 -9.99
2020/01/15 19:12 EST    0.30   0.63    2  285    2  43.0  38.3 1020.5 33.2  1.027 -99.9 -99.99 -9.99
2020/01/15 19:18 EST    0.35   0.73    2  302    3  43.3  38.3 1020.5 33.2  1.027 -99.9 -99.99 -9.99
2020/01/15 19:24 EST    0.40   0.72    2  301    3  43.2  38.3 1020.4 33.2  1.027 -99.9 -99.99 -9.99
2020/01/15 19:30 EST    0.45   0.74    2  275    3  43.0  38.3 1020.5 33.3  1.027 -99.9 -99.99 -9.99
2020/01/15 19:36 EST    0.51   0.81    0  352    2  42.8  38.3 1020.5 33.3  1.027 -99.9 -99.99 -9.99
2020/01/15 19:42 EST    0.57   0.81    1   35    1  42.8  38.3 1020.4 33.3  1.027 -99.9 -99.99 -9.99
2020/01/15 19:48 EST    0.63   0.91    1   18    1  42.4  38.3 1020.4 33.3  1.027 -99.9 -99.99 -9.99
2020/01/15 19:54 EST    0.70   0.93    1    5    1  41.2  38.3 1020.3 33.3  1.027 -99.9 -99.99 -9.99
2020/01/15 20:00 EST    0.77   1.06    2  330    3  41.0  38.3 1020.3 33.3  1.027 -99.9 -99.99 -9.99
2020/01/15 20:06 EST    0.84   1.13    0  325    2  41.5  38.3 1020.4 33.2  1.027 -99.9 -99.99 -9.99
2020/01/15 20:12 EST    0.92   1.21    2   46    2  40.3  38.3 1020.3 33.3  1.027 -99.9 -99.99 -9.99
2020/01/15 20:18 EST    1.00   1.33    0   27    2  40.5  38.3 1020.3 33.2  1.027 -99.9 -99.99 -9.99
2020/01/15 20:24 EST    1.08   1.40    2    6    2  39.7  38.3 1020.2 33.3  1.027 -99.9 -99.99 -9.99
2020/01/15 20:30 EST    1.17   1.46    1  343    3  40.1  38.3 1020.2 33.4  1.027 -99.9 -99.99 -9.99
2020/01/15 20:36 EST    1.26   1.56    2  125    3  39.7  38.3 1020.3 33.2  1.027 -99.9 -99.99 -9.99
2020/01/15 20:42 EST    1.35   1.65    0   99    2  39.6  38.5 1020.3 33.3  1.027 -99.9 -99.99 -9.99
2020/01/15 20:48 EST    1.44   1.72    0   20    1  39.2  38.5 1020.2 33.2  1.027 -99.9 -99.99 -9.99
2020/01/15 20:54 EST    1.54   1.89    0   10    0  39.4  38.3 1020.1 33.3  1.027 -99.9 -99.99 -9.99
2020/01/15 21:00 EST    1.64   2.00    1   79    1  39.2  38.3 1020.1 33.3  1.027 -99.9 -99.99 -9.99
2020/01/15 21:06 EST    1.74   2.06    0   77    2  39.4  38.3 1020.1 33.3  1.027 -99.9 -99.99 -9.99
2020/01/15 21:12 EST    1.84   2.24    0   15    1  38.7  38.1 1020.0 33.2  1.027 -99.9 -99.99 -9.99
2020/01/15 21:18 EST    1.95   2.35    1   15    1  38.7  38.1 1019.9 33.3  1.027 -99.9 -99.99 -9.99
2020/01/15 21:24 EST    2.05   2.48    0   62    1  38.1  38.3 1019.9 33.2  1.027 -99.9 -99.99 -9.99
2020/01/15 21:30 EST    2.16   2.62    0   12    1  37.9  38.3 1020.0 33.1  1.027 -99.9 -99.99 -9.99
2020/01/15 21:36 EST    2.27   2.71    0   94    2  38.5  38.3 1020.0 33.2  1.027 -99.9 -99.99 -9.99
2020/01/15 21:42 EST    2.37   2.78    0   75    0  38.3  38.3 1020.0 33.1  1.027 -99.9 -99.99 -9.99
2020/01/15 21:48 EST    2.48   2.96    1  103    1  37.9  38.3 1019.9 33.1  1.027 -99.9 -99.99 -9.99
2020/01/15 21:54 EST    2.58   3.05    1  168    1  37.8  38.3 1019.9 33.1  1.027 -99.9 -99.99 -9.99
2020/01/15 22:00 EST    2.68   3.17    0   79    1  38.1  38.1 1019.7 33.2  1.027 -99.9 -99.99 -9.99
2020/01/15 22:06 EST    2.78   3.37    1   91    1  37.4  38.3 1019.7 33.1  1.027 -99.9 -99.99 -9.99
2020/01/15 22:12 EST    2.88   3.42    1   44    1  37.9  38.3 1019.4 33.2  1.027 -99.9 -99.99 -9.99
2020/01/15 22:18 EST    2.97   3.55    0   22    1  37.4  38.3 1019.4 33.1  1.027 -99.9 -99.99 -9.99
2020/01/15 22:24 EST    3.06   3.67    0   51    0  37.6  38.3 1019.3 33.1  1.027 -99.9 -99.99 -9.99
2020/01/15 22:30 EST    3.15   3.75    0   74    0  37.4  38.1 1019.3 33.2  1.027 -99.9 -99.99 -9.99
2020/01/15 22:36 EST    3.23   3.81    0   80    0  37.4  38.1 1019.3 33.1  1.027 -99.9 -99.99 -9.99
2020/01/15 22:42 EST    3.31   3.91    0   80    0  37.9  38.1 1019.3 33.1  1.027 -99.9 -99.99 -9.99
2020/01/15 22:48 EST    3.39   3.99    0  101    1  38.1  38.1 1019.3 33.2  1.027 -99.9 -99.99 -9.99
2020/01/15 22:54 EST    3.45   4.06    1   86    1  38.1  38.3 1019.1 33.0  1.027 -99.9 -99.99 -9.99
2020/01/15 23:00 EST    3.52   4.15    0   83    1  37.6  38.3 1019.2 33.1  1.027 -99.9 -99.99 -9.99
2020/01/15 23:06 EST    3.57   4.17    0  100    2  37.4  38.3 1019.2 33.1  1.027 -99.9 -99.99 -9.99
2020/01/15 23:12 EST    3.62   4.21    0   44    0  37.4  38.1 1019.1 33.2  1.027 -99.9 -99.99 -9.99
2020/01/15 23:18 EST    3.66   4.27    1   95    1  37.4  38.3 1019.0 33.1  1.027 -99.9 -99.99 -9.99
2020/01/15 23:24 EST    3.70   4.32    0   45    1  36.9  38.1 1018.8 33.2  1.027 -99.9 -99.99 -9.99
2020/01/15 23:30 EST    3.73   4.36    0   58    1  36.7  38.1 1018.7 33.2  1.027 -99.9 -99.99 -9.99
2020/01/15 23:36 EST    3.75   4.41    1   40    2  36.3  38.1 1018.6 33.1  1.027 -99.9 -99.99 -9.99
2020/01/15 23:42 EST    3.76   4.41    1   36    3  36.3  38.3 1018.4 33.1  1.027 -99.9 -99.99 -9.99
2020/01/15 23:48 EST    3.77   4.44    1  104    2  36.3  38.3 1018.2 33.1  1.027 -99.9 -99.99 -9.99
2020/01/15 23:54 EST    3.77   4.40    2   85    2  36.9  38.1 1017.9 33.1  1.027 -99.9 -99.99 -9.99
2020/01/16 00:00 EST    3.76   4.44    0   23    2  36.3  38.1 1017.8 33.1  1.027 -99.9 -99.99 -9.99
2020/01/16 00:06 EST    3.74   4.45    1   91    2  36.9  38.1 1017.6 33.1  1.027 -99.9 -99.99 -9.99
2020/01/16 00:12 EST    3.71   4.44    2   78    2  37.2  38.3 1017.4 33.1  1.027 -99.9 -99.99 -9.99
2020/01/16 00:18 EST    3.68   4.46    2   24    5  37.4  38.1 1017.1 33.1  1.027 -99.9 -99.99 -9.99
2020/01/16 00:24 EST    3.64   4.42    2   97    2  37.4  38.1 1017.0 33.1  1.027 -99.9 -99.99 -9.99
2020/01/16 00:30 EST    3.60   4.35    1   67    2  37.6  37.9 1017.2 33.0  1.027 -99.9 -99.99 -9.99
2020/01/16 00:36 EST    3.54   4.28    0  114    3  37.6  38.1 1017.0 33.1  1.027 -99.9 -99.99 -9.99
2020/01/16 00:42 EST    3.48   4.22    2  142    3  38.3  37.9 1017.0 33.0  1.027 -99.9 -99.99 -9.99
2020/01/16 00:48 EST    3.41   4.14    0   46    2  38.5  38.1 1017.0 33.0  1.027 -99.9 -99.99 -9.99
2020/01/16 00:54 EST    3.34   4.10    1    4    1  38.3  37.9 1016.9 33.0  1.027 -99.9 -99.99 -9.99
2020/01/16 01:00 EST    3.26   4.02    3   89    3  38.3  37.9 1016.6 33.0  1.027 -99.9 -99.99 -9.99
2020/01/16 01:06 EST    3.18   4.00    0   28    5  38.5  37.9 1016.6 32.9  1.027 -99.9 -99.99 -9.99
2020/01/16 01:12 EST    3.09   3.86    2  213    2  38.5  37.9 1016.9 33.0  1.027 -99.9 -99.99 -9.99
2020/01/16 01:18 EST    2.99   3.74    1  209    3  39.6  37.9 1016.7 33.0  1.027 -99.9 -99.99 -9.99
2020/01/16 01:24 EST    2.90   3.65    1  184    2  39.7  37.9 1016.7 33.0  1.027 -99.9 -99.99 -9.99
2020/01/16 01:30 EST    2.79   3.56    1  112    2  39.9  37.9 1016.5 33.0  1.027 -99.9 -99.99 -9.99
2020/01/16 01:36 EST    2.69   3.50    0  294    1  39.9  37.9 1017.0 33.0  1.027 -99.9 -99.99 -9.99
2020/01/16 01:42 EST    2.58   3.40    2  319    3  39.4  37.9 1017.5 33.2  1.027 -99.9 -99.99 -9.99
2020/01/16 01:48 EST    2.47   3.14    5   32    5  39.2  37.9 1017.4 33.0  1.027 -99.9 -99.99 -9.99
2020/01/16 01:54 EST    2.35   3.19    1  334    6  39.6  37.9 1018.0 33.0  1.027 -99.9 -99.99 -9.99
2020/01/16 02:00 EST    2.24   3.07    5  350    5  40.3  37.9 1017.4 33.1  1.027 -99.9 -99.99 -9.99
2020/01/16 02:06 EST    2.12   2.91    4   28    7  40.5  37.9 1016.9 33.0  1.027 -99.9 -99.99 -9.99
2020/01/16 02:12 EST    2.00   2.75    3   14    5  40.1  37.9 1016.7 32.9  1.027 -99.9 -99.99 -9.99
2020/01/16 02:18 EST    1.88   2.61    3   83    4  39.9  37.9 1016.6 33.4  1.028 -99.9 -99.99 -9.99
2020/01/16 02:24 EST    1.76   2.53    1   67    4  39.6  37.9 1016.5 32.8  1.027 -99.9 -99.99 -9.99
2020/01/16 02:30 EST    1.65   2.41    2  341    2  39.7  37.9 1016.5 32.9  1.027 -99.9 -99.99 -9.99
2020/01/16 02:36 EST    1.53   2.28    3   20    3  39.6  37.9 1016.3 33.0  1.027 -99.9 -99.99 -9.99
2020/01/16 02:42 EST    1.42   2.21    3   14    4  39.9  37.9 1016.3 33.0  1.027 -99.9 -99.99 -9.99
2020/01/16 02:48 EST    1.31   1.93    2   15    4  39.7  37.9 1016.3 33.0  1.027 -99.9 -99.99 -9.99
2020/01/16 02:54 EST    1.20   1.97    1  351    3  39.7  37.9 1016.3 33.0  1.027 -99.9 -99.99 -9.99
2020/01/16 03:00 EST    1.09   1.83    1   49    1  39.6  37.9 1015.9 33.3  1.027 -99.9 -99.99 -9.99
2020/01/16 03:06 EST    0.99   1.66    2   69    3  39.2  37.9 1015.6 33.0  1.027 -99.9 -99.99 -9.99
2020/01/16 03:12 EST    0.89   1.57    1   71    2  39.0  37.9 1015.5 33.2  1.027 -99.9 -99.99 -9.99
2020/01/16 03:18 EST    0.79   1.53    3   88    3  39.2  37.9 1015.1 33.0  1.027 -99.9 -99.99 -9.99
2020/01/16 03:24 EST    0.70   1.51    4  103    4  39.2  37.9 1014.7 33.1  1.027 -99.9 -99.99 -9.99
2020/01/16 03:30 EST    0.62   1.42    6  100    7  39.6  37.9 1014.4 33.1  1.027 -99.9 -99.99 -9.99
2020/01/16 03:36 EST    0.53   1.16    6   93    7  39.7  37.9 1014.2 33.0  1.027 -99.9 -99.99 -9.99
2020/01/16 03:42 EST    0.46   1.25    5   99    7  39.6  37.9 1014.0 32.9  1.027 -99.9 -99.99 -9.99
2020/01/16 03:48 EST    0.39   1.13    6  100    8  39.9  37.9 1013.6 33.3  1.027 -99.9 -99.99 -9.99
2020/01/16 03:54 EST    0.32   0.95    5   98    8  40.1  37.9 1013.7 33.1  1.027 -99.9 -99.99 -9.99
2020/01/16 04:00 EST    0.26   0.90    5  101    7  40.3  37.9 1013.6 32.7  1.027 -99.9 -99.99 -9.99
2020/01/16 04:06 EST    0.21   1.00    4  107    6  40.6  37.9 1013.6 33.3  1.027 -99.9 -99.99 -9.99
2020/01/16 04:12 EST    0.16   0.90    5  107    7  40.5  37.9 1013.1 33.3  1.027 -99.9 -99.99 -9.99
2020/01/16 04:18 EST    0.12   0.65    6  109    7  40.6  37.9 1013.1 33.2  1.027 -99.9 -99.99 -9.99
2020/01/16 04:24 EST    0.08   0.86    5  118    8  41.0  37.9 1013.2 33.3  1.027 -99.9 -99.99 -9.99
2020/01/16 04:30 EST    0.05   0.55    5  122    7  41.0  37.9 1013.5 33.1  1.027 -99.9 -99.99 -9.99
2020/01/16 04:36 EST    0.02   0.85    5  116    7  41.2  37.9 1013.1 33.1  1.027 -99.9 -99.99 -9.99
2020/01/16 04:42 EST    0.00   0.76    5  123    7  41.4  37.9 1012.9 33.1  1.027 -99.9 -99.99 -9.99
2020/01/16 04:48 EST   -0.02   0.72    6  107    7  41.4  37.9 1012.5 33.1  1.027 -99.9 -99.99 -9.99
2020/01/16 04:54 EST   -0.03   0.58    5  102    7  41.2  37.9 1012.4 33.4  1.028 -99.9 -99.99 -9.99
2020/01/16 05:00 EST   -0.04   0.66    5  113    7  41.4  37.9 1012.1 33.3  1.027 -99.9 -99.99 -9.99
2020/01/16 05:06 EST   -0.04   0.75    4  118    7  41.7  37.9 1011.8 33.2  1.027 -99.9 -99.99 -9.99
2020/01/16 05:12 EST   -0.04   0.77    5  136    6  42.1  37.9 1011.5 33.5  1.028 -99.9 -99.99 -9.99
2020/01/16 05:18 EST   -0.04   0.64    8  158    9  42.8  37.9 1011.7 33.4  1.028 -99.9 -99.99 -9.99
2020/01/16 05:24 EST   -0.04   0.93    6  157    9  43.2  37.9 1011.6 33.3  1.027 -99.9 -99.99 -9.99
2020/01/16 05:30 EST   -0.03   0.73    9  155   10  43.3  37.9 1011.4 33.5  1.028 -99.9 -99.99 -9.99
2020/01/16 05:36 EST   -0.02   0.83    9  158   10  43.3  37.9 1011.2 33.6  1.028 -99.9 -99.99 -9.99
2020/01/16 05:42 EST   -0.01   0.81    7  153   11  43.2  37.9 1011.1 33.5  1.028 -99.9 -99.99 -9.99
2020/01/16 05:48 EST    0.01   0.95    6  164   11  43.3  37.9 1011.3 33.5  1.028 -99.9 -99.99 -9.99
2020/01/16 05:54 EST    0.02   0.97    9  163   10  43.3  37.9 1011.1 33.6  1.028 -99.9 -99.99 -9.99
2020/01/16 06:00 EST    0.04   0.97    8  164   11  43.3  37.9 1011.1 33.7  1.028 -99.9 -99.99 -9.99
2020/01/16 06:06 EST    0.06   0.97    8  161   10  43.3  37.9 1010.9 33.5  1.028 -99.9 -99.99 -9.99
2020/01/16 06:12 EST    0.08   0.95    8  157   11  43.3  37.9 1010.6 33.6  1.028 -99.9 -99.99 -9.99
2020/01/16 06:18 EST    0.10   1.07   11  155   12  43.3  37.9 1010.1 33.3  1.027 -99.9 -99.99 -9.99
2020/01/16 06:24 EST    0.12   1.13   11  158   14  43.3  37.9 1010.1 33.3  1.027 -99.9 -99.99 -9.99
2020/01/16 06:30 EST    0.15   1.17    8  157   13  43.3  37.9 1010.1 33.2  1.027 -99.9 -99.99 -9.99
2020/01/16 06:36 EST    0.17   1.19    8  159   11  43.2  37.9 1010.0 33.4  1.028 -99.9 -99.99 -9.99
2020/01/16 06:42 EST    0.20   1.20   10  161   13  43.3  37.9 1009.9 33.5  1.028 -99.9 -99.99 -9.99
2020/01/16 06:48 EST    0.23   1.33   10  159   13  43.2  37.9 1009.6 33.5  1.028 -99.9 -99.99 -9.99
2020/01/16 06:54 EST    0.26   1.27   12  159   14  43.0  37.9 1009.4 33.5  1.028 -99.9 -99.99 -9.99
2020/01/16 07:00 EST    0.28   1.33   11  151   15  43.0  37.9 1009.1 33.5  1.028 -99.9 -99.99 -9.99
2020/01/16 07:06 EST    0.32   1.41   12  159   14  43.0  37.9 1009.0 33.5  1.028 -99.9 -99.99 -9.99
2020/01/16 07:12 EST    0.35   1.36   10  159   15  42.8  37.9 1008.8 33.5  1.028 -99.9 -99.99 -9.99
2020/01/16 07:18 EST    0.38   1.54   11  158   14  42.8  37.9 1008.7 33.4  1.028 -99.9 -99.99 -9.99
2020/01/16 07:24 EST    0.42   1.54   12  157   14  42.8  38.1 1008.6 33.3  1.027 -99.9 -99.99 -9.99
2020/01/16 07:30 EST    0.46   1.52   11  157   14  42.8  37.9 1008.4 33.3  1.027 -99.9 -99.99 -9.99
2020/01/16 07:36 EST    0.50   1.71   12  157   15  42.8  37.9 1008.2 33.3  1.027 -99.9 -99.99 -9.99
2020/01/16 07:42 EST    0.54   1.55   11  160   14  42.8  37.9 1008.1 33.4  1.027 -99.9 -99.99 -9.99
2020/01/16 07:48 EST    0.59   1.77   11  160   15  43.0  37.9 1008.1 33.2  1.027 -99.9 -99.99 -9.99
2020/01/16 07:54 EST    0.63   1.87    9  162   12  43.0  37.9 1007.9 33.3  1.027 -99.9 -99.99 -9.99
2020/01/16 08:00 EST    0.69   1.80   11  160   13  43.0  37.9 1007.7 33.3  1.027 -99.9 -99.99 -9.99
2020/01/16 08:06 EST    0.74   1.99   11  158   15  43.2  37.9 1007.6 33.3  1.027 -99.9 -99.99 -9.99
2020/01/16 08:12 EST    0.79   2.04    9  163   14  43.3  37.9 1007.4 33.3  1.027 -99.9 -99.99 -9.99
2020/01/16 08:18 EST    0.85   2.14    9  169   12  43.3  37.9 1007.3 33.3  1.027 -99.9 -99.99 -9.99
2020/01/16 08:24 EST    0.92   2.28   10  173   12  43.5  37.9 1007.2 33.3  1.027 -99.9 -99.99 -9.99
2020/01/16 08:30 EST    0.98   2.27    8  179   12  43.5  37.9 1007.1 33.3  1.027 -99.9 -99.99 -9.99
2020/01/16 08:36 EST    1.05   2.34    8  175   12  43.7  37.9 1006.9 33.3  1.027 -99.9 -99.99 -9.99
2020/01/16 08:42 EST    1.12   2.40    8  184   11  43.7  37.9 1006.9 33.3  1.027 -99.9 -99.99 -9.99
2020/01/16 08:48 EST    1.19   2.52    9  185   11  43.9  37.9 1006.7 33.3  1.027 -99.9 -99.99 -9.99
2020/01/16 08:54 EST    1.27   2.47   10  198   12  44.1  37.9 1006.7 33.2  1.027 -99.9 -99.99 -9.99
2020/01/16 09:00 EST    1.35   2.65    8  207   11  43.9  37.9 1006.6 33.2  1.027 -99.9 -99.99 -9.99
2020/01/16 09:06 EST    1.43   2.83    9  199   11  44.1  37.9 1006.5 33.2  1.027 -99.9 -99.99 -9.99
2020/01/16 09:12 EST    1.51   2.74   11  225   15  44.6  37.9 1006.3 33.2  1.027 -99.9 -99.99 -9.99
2020/01/16 09:18 EST    1.60   2.87   11  246   16  45.1  37.9 1006.2 33.2  1.027 -99.9 -99.99 -9.99
2020/01/16 09:24 EST    1.69   2.97   11  252   13  45.5  37.9 1006.1 33.2  1.027 -99.9 -99.99 -9.99
2020/01/16 09:30 EST    1.78   3.01   10  263   13  45.7  37.9 1006.2 33.2  1.027 -99.9 -99.99 -9.99
2020/01/16 09:36 EST    1.87   3.19   12  263   15  46.0  37.9 1006.1 33.2  1.027 -99.9 -99.99 -9.99
2020/01/16 09:42 EST    1.96   3.13   12  269   15  46.2  37.9 1006.1 33.2  1.027 -99.9 -99.99 -9.99
2020/01/16 09:48 EST    2.06   3.27   10  279   16  46.4  37.9 1006.1 33.2  1.027 -99.9 -99.99 -9.99
2020/01/16 09:54 EST    2.15   3.36   12  280   15  46.6  37.9 1006.0 33.3  1.027 -99.9 -99.99 -9.99
2020/01/16 10:00 EST    2.24   3.44   15  283   19  46.9  37.9 1006.0 33.2  1.027 -99.9 -99.99 -9.99
2020/01/16 10:06 EST    2.34   3.49   14  297   22  47.3  37.9 1006.0 33.2  1.027 -99.9 -99.99 -9.99
2020/01/16 10:12 EST    2.43   3.54   17  289   25  47.3  37.9 1006.1 33.2  1.027 -99.9 -99.99 -9.99
2020/01/16 10:18 EST    2.52   3.68   19  300   26  47.8  37.9 1006.2 33.2  1.027 -99.9 -99.99 -9.99
2020/01/16 10:24 EST    2.61   3.69   18  301   28  47.7  37.9 1006.2 33.2  1.027 -99.9 -99.99 -9.99
2020/01/16 10:30 EST    2.70   3.75   18  307   31  47.7  37.9 1006.2 33.2  1.027 -99.9 -99.99 -9.99
2020/01/16 10:36 EST    2.79   3.78   16  299   29  47.1  38.1 1006.2 33.1  1.027 -99.9 -99.99 -9.99
2020/01/16 10:42 EST    2.87   3.77   18  299   30  47.3  38.1 1006.1 33.1  1.027 -99.9 -99.99 -9.99
2020/01/16 10:48 EST    2.96   3.82   16  302   26  46.9  38.1 1006.1 33.1  1.027 -99.9 -99.99 -9.99
2020/01/16 10:54 EST    3.03   3.81   21  307   30  47.1  38.1 1006.0 33.1  1.027 -99.9 -99.99 -9.99
2020/01/16 11:00 EST    3.11   3.81   16  293   29  47.3  38.1 1005.9 33.1  1.027 -99.9 -99.99 -9.99
2020/01/16 11:06 EST    3.18   3.88   19  298   30  47.5  38.1 1005.8 33.1  1.027 -99.9 -99.99 -9.99
2020/01/16 11:12 EST    3.24   3.90   22  298   31  47.5  38.1 1005.5 33.1  1.027 -99.9 -99.99 -9.99
2020/01/16 11:18 EST    3.30   3.94   20  289   29  47.3  38.1 1005.4 33.1  1.027 -99.9 -99.99 -9.99
2020/01/16 11:24 EST    3.35   4.07   20  289   33  47.5  38.1 1005.3 33.1  1.027 -99.9 -99.99 -9.99
2020/01/16 11:30 EST    3.40   4.01   22  287   32  47.5  38.1 1005.3 33.1  1.027 -99.9 -99.99 -9.99
2020/01/16 11:36 EST    3.45   3.98   18  293   32  47.7  38.1 1005.2 33.1  1.027 -99.9 -99.99 -9.99
2020/01/16 11:42 EST    3.48   4.01   24  290   30  47.8  38.1 1005.1 33.2  1.027 -99.9 -99.99 -9.99
2020/01/16 11:48 EST    3.51   4.01   22  288   32  47.7  38.1 1005.0 33.2  1.027 -99.9 -99.99 -9.99
2020/01/16 11:54 EST    3.53   3.98   16  301   27  47.8  38.1 1005.0 33.2  1.027 -99.9 -99.99 -9.99
2020/01/16 12:00 EST    3.55   4.02   26  307   33  46.8  38.1 1005.0 33.2  1.027 -99.9 -99.99 -9.99
2020/01/16 12:06 EST    3.56   4.10   17  298   34  46.6  38.1 1005.2 33.2  1.027 -99.9 -99.99 -9.99
2020/01/16 12:12 EST    3.56   3.97   18  288   26  46.4  38.1 1005.1 33.2  1.027 -99.9 -99.99 -9.99
2020/01/16 12:18 EST    3.56   4.00   24  292   28  46.2  38.1 1005.1 33.2  1.027 -99.9 -99.99 -9.99
2020/01/16 12:24 EST    3.54   4.00   23  298   36  45.7  38.1 1005.2 33.2  1.027 -99.9 -99.99 -9.99
2020/01/16 12:30 EST    3.52   3.89   20  303   35  45.5  38.3 1005.3 33.1  1.027 -99.9 -99.99 -9.99
2020/01/16 12:36 EST    3.50   3.89   20  298   38  45.7  38.3 1005.1 33.1  1.027 -99.9 -99.99 -9.99
2020/01/16 12:42 EST    3.46   3.83   25  286   35  45.7  38.3 1005.0 33.1  1.027 -99.9 -99.99 -9.99
2020/01/16 12:48 EST    3.42   3.83   28  282   34  45.7  38.3 1004.8 33.1  1.027 -99.9 -99.99 -9.99
2020/01/16 12:54 EST    3.38   3.66   20  298   32  45.9  38.3 1005.1 33.0  1.027 -99.9 -99.99 -9.99
2020/01/16 13:00 EST    3.32   3.57   20  304   33  45.7  38.3 1005.2 33.2  1.027 -99.9 -99.99 -9.99
2020/01/16 13:06 EST    3.26   3.41   27  294   37  45.7  38.3 1004.9 33.2  1.027 -99.9 -99.99 -9.99
2020/01/16 13:12 EST    3.20   3.34   23  304   39  45.5  38.3 1005.2 33.1  1.027 -99.9 -99.99 -9.99
2020/01/16 13:18 EST    3.12   3.26   20  309   31  45.7  38.3 1005.2 33.1  1.027 -99.9 -99.99 -9.99
2020/01/16 13:24 EST    3.05   3.20   23  310   31  45.9  38.3 1005.3 33.2  1.027 -99.9 -99.99 -9.99
2020/01/16 13:30 EST    2.96   3.10   26  310   32  45.9  38.3 1005.3 33.2  1.027 -99.9 -99.99 -9.99
2020/01/16 13:36 EST    2.88   2.93   25  317   34  45.7  38.3 1005.4 33.2  1.027 -99.9 -99.99 -9.99
2020/01/16 13:42 EST    2.79   2.88   22  308   36  45.3  38.3 1005.4 33.2  1.027 -99.9 -99.99 -9.99
2020/01/16 13:48 EST    2.69   2.76   24  308   32  45.3  38.3 1005.5 33.2  1.027 -99.9 -99.99 -9.99
2020/01/16 13:54 EST    2.59   2.55   22  310   27  45.3  38.3 1005.6 33.2  1.027 -99.9 -99.99 -9.99
2020/01/16 14:00 EST    2.49   2.48   21  313   26  45.3  38.3 1005.7 33.2  1.027 -99.9 -99.99 -9.99
2020/01/16 14:06 EST    2.38   2.33   18  309   25  45.3  38.3 1005.9 33.2  1.027 -99.9 -99.99 -9.99
2020/01/16 14:12 EST    2.28   2.24   18  315   26  45.1  38.3 1006.0 33.2  1.027 -99.9 -99.99 -9.99
2020/01/16 14:18 EST    2.17   2.17   22  319   30  45.0  38.3 1006.1 33.2  1.027 -99.9 -99.99 -9.99
2020/01/16 14:24 EST    2.06   2.18   22  311   32  44.6  38.3 1006.2 33.2  1.027 -99.9 -99.99 -9.99
2020/01/16 14:30 EST    1.94   2.05   22  305   36  43.9  38.3 1006.2 33.2  1.027 -99.9 -99.99 -9.99
2020/01/16 14:36 EST    1.83   1.91   17  307   29  43.9  38.3 1006.3 33.2  1.027 -99.9 -99.99 -9.99
2020/01/16 14:42 EST    1.72   1.79   20  317   29  43.9  38.3 1006.4 33.2  1.027 -99.9 -99.99 -9.99
2020/01/16 14:48 EST    1.61   1.67   21  306   31  43.3  38.3 1006.5 33.2  1.027 -99.9 -99.99 -9.99
2020/01/16 14:54 EST    1.49   1.57   22  314   31  43.2  38.3 1006.8 33.1  1.027 -99.9 -99.99 -9.99
2020/01/16 15:00 EST    1.38   1.37   20  315   29  43.2  38.3 1006.8 33.1  1.027 -99.9 -99.99 -9.99
2020/01/16 15:06 EST    1.28   1.22   19  315   27  43.3  38.3 1007.0 33.1  1.027 -99.9 -99.99 -9.99
2020/01/16 15:12 EST    1.17   1.11   23  308   27  43.2  38.3 1007.0 33.1  1.027 -99.9 -99.99 -9.99
2020/01/16 15:18 EST    1.07   1.01   21  306   31  43.0  38.3 1007.2 33.1  1.027 -99.9 -99.99 -9.99
2020/01/16 15:24 EST    0.96   0.97   26  309   32  43.0  38.3 1007.2 33.1  1.027 -99.9 -99.99 -9.99
2020/01/16 15:30 EST    0.87   0.90   21  305   33  43.0  38.3 1007.3 33.1  1.027 -99.9 -99.99 -9.99
2020/01/16 15:36 EST    0.77   0.76   19  308   27  42.8  38.3 1007.5 33.1  1.027 -99.9 -99.99 -9.99
2020/01/16 15:42 EST    0.68   0.66   18  311   28  43.0  38.3 1007.6 33.0  1.027 -99.9 -99.99 -9.99
2020/01/16 15:48 EST    0.60   0.52   19  315   29  43.0  38.3 1007.8 33.0  1.027 -99.9 -99.99 -9.99
2020/01/16 15:54 EST    0.52   0.60   23  313   30  43.0  38.3 1007.9 33.1  1.027 -99.9 -99.99 -9.99
2020/01/16 16:00 EST    0.44   0.41   19  310   28  43.0  38.3 1008.1 33.0  1.027 -99.9 -99.99 -9.99
2020/01/16 16:06 EST    0.37   0.42   20  307   32  42.8  38.3 1008.2 33.0  1.027 -99.9 -99.99 -9.99
2020/01/16 16:12 EST    0.30   0.24   21  311   30  42.4  38.3 1008.3 33.0  1.027 -99.9 -99.99 -9.99
2020/01/16 16:18 EST    0.24   0.13   19  306   30  42.1  38.3 1008.6 33.0  1.027 -99.9 -99.99 -9.99
2020/01/16 16:24 EST    0.18   0.14   21  311   30  41.7  38.3 1008.8 33.0  1.027 -99.9 -99.99 -9.99
2020/01/16 16:30 EST    0.13   0.03   16  301   27  41.4  38.3 1009.0 33.0  1.027 -99.9 -99.99 -9.99
2020/01/16 16:36 EST    0.08  -0.01   19  286   25  39.6  38.3 1009.2 33.0  1.027 -99.9 -99.99 -9.99
2020/01/16 16:42 EST    0.04  -0.02   14  295   23  39.7  38.3 1009.4 33.0  1.027 -99.9 -99.99 -9.99
2020/01/16 16:48 EST    0.01  -0.09   12  301   18  39.7  38.3 1009.5 33.0  1.027 -99.9 -99.99 -9.99
2020/01/16 16:54 EST   -0.03  -0.14   15  312   22  40.1  38.3 1009.5 33.0  1.027 -99.9 -99.99 -9.99
2020/01/16 17:00 EST   -0.05  -0.12   12  306   19  40.1  38.3 1009.6 33.0  1.027 -99.9 -99.99 -9.99
2020/01/16 17:06 EST   -0.08  -0.08   12  301   18  40.1  38.3 1009.7 33.0  1.027 -99.9 -99.99 -9.99
2020/01/16 17:12 EST   -0.09  -0.15   14  310   20  39.9  38.1 1009.9 33.0  1.027 -99.9 -99.99 -9.99
2020/01/16 17:18 EST   -0.11  -0.05   15  317   21  39.9  38.1 1010.1 33.0  1.027 -99.9 -99.99 -9.99
2020/01/16 17:24 EST   -0.12  -0.14   14  311   21  39.9  38.1 1010.2 33.0  1.027 -99.9 -99.99 -9.99
2020/01/16 17:30 EST   -0.13   0.02   13  319   18  39.9  38.1 1010.5 33.0  1.027 -99.9 -99.99 -9.99
2020/01/16 17:36 EST   -0.13  -0.04   11  318   19  39.9  38.1 1010.8 33.0  1.027 -99.9 -99.99 -9.99
2020/01/16 17:42 EST   -0.13  -0.01   16  317   19  39.9  38.1 1010.9 33.0  1.027 -99.9 -99.99 -9.99
2020/01/16 17:48 EST   -0.13  -0.04   14  316   23  39.9  38.1 1011.0 33.0  1.027 -99.9 -99.99 -9.99
2020/01/16 17:54 EST   -0.12  -0.03   13  319   24  39.9  38.1 1011.2 33.0  1.027 -99.9 -99.99 -9.99
2020/01/16 18:00 EST   -0.12  -0.10   13  319   26  39.7  38.1 1011.5 33.0  1.027 -99.9 -99.99 -9.99
2020/01/16 18:06 EST   -0.11  -0.18   13  340   24  39.7  38.1 1011.7 33.0  1.027 -99.9 -99.99 -9.99
2020/01/16 18:12 EST   -0.10  -0.16   15  338   25  39.2  38.1 1011.9 33.0  1.027 -99.9 -99.99 -9.99
2020/01/16 18:18 EST   -0.09  -0.21   13  342   22  38.8  38.1 1012.0 33.0  1.027 -99.9 -99.99 -9.99
2020/01/16 18:24 EST   -0.07  -0.14   15  343   21  38.7  37.9 1012.2 33.0  1.027 -99.9 -99.99 -9.99
2020/01/16 18:30 EST   -0.06  -0.15   14  338   23  38.7  37.9 1012.4 33.0  1.027 -99.9 -99.99 -9.99
2020/01/16 18:36 EST   -0.04  -0.13   21  332   27  38.3  37.9 1012.6 33.0  1.027 -99.9 -99.99 -9.99
2020/01/16 18:42 EST   -0.03  -0.13   19  336   30  38.1  37.9 1012.7 33.0  1.027 -99.9 -99.99 -9.99
2020/01/16 18:48 EST   -0.01  -0.09   20  339   27  37.6  37.9 1012.8 33.0  1.027 -99.9 -99.99 -9.99
2020/01/16 18:54 EST    0.01  -0.20   18  335   28  37.4  37.9 1013.0 33.0  1.027 -99.9 -99.99 -9.99
2020/01/16 19:00 EST    0.03  -0.20   16  341   26  37.2  37.9 1013.3 33.0  1.027 -99.9 -99.99 -9.99
2020/01/16 19:06 EST    0.05  -0.25   18  337   29  36.9  37.9 1013.4 33.0  1.027 -99.9 -99.99 -9.99
2020/01/16 19:12 EST    0.08  -0.32   18  337   31  36.7  37.9 1013.5 33.0  1.027 -99.9 -99.99 -9.99
2020/01/16 19:18 EST    0.10  -0.26   18  342   26  36.7  37.9 1013.6 33.0  1.027 -99.9 -99.99 -9.99
2020/01/16 19:24 EST    0.13  -0.41   15  344   24  36.7  37.9 1013.7 33.0  1.027 -99.9 -99.99 -9.99
2020/01/16 19:30 EST    0.15  -0.26   17  339   25  36.7  37.8 1013.9 33.0  1.027 -99.9 -99.99 -9.99
2020/01/16 19:36 EST    0.18  -0.32   19  343   27  36.7  37.8 1013.9 32.9  1.027 -99.9 -99.99 -9.99
2020/01/16 19:42 EST    0.21  -0.37   21  342   34  36.7  37.8 1014.1 32.9  1.027 -99.9 -99.99 -9.99
2020/01/16 19:48 EST    0.25  -0.37   18  335   29  36.5  37.8 1014.2 32.9  1.027 -99.9 -99.99 -9.99
2020/01/16 19:54 EST    0.28  -0.24   18  336   30  36.3  37.8 1014.2 32.9  1.027 -99.9 -99.99 -9.99
2020/01/16 20:00 EST    0.32  -0.35   16  337   27  36.3  37.8 1014.2 32.9  1.027 -99.9 -99.99 -9.99
2020/01/16 20:06 EST    0.36  -0.33   16  338   24  36.3  37.8 1014.3 32.9  1.027 -99.9 -99.99 -9.99
2020/01/16 20:12 EST    0.40  -0.27   17  333   24  36.1  37.8 1014.3 32.9  1.027 -99.9 -99.99 -9.99
2020/01/16 20:18 EST    0.45  -0.21   17  341   26  36.0  37.8 1014.4 32.9  1.027 -99.9 -99.99 -9.99
2020/01/16 20:24 EST    0.50  -0.18   20  344   27  36.0  37.8 1014.5 32.9  1.027 -99.9 -99.99 -9.99
2020/01/16 20:30 EST    0.55  -0.14   17  336   27  35.8  37.8 1014.5 32.9  1.027 -99.9 -99.99 -9.99
2020/01/16 20:36 EST    0.60  -0.16   15  334   22  35.8  37.6 1014.7 33.0  1.027 -99.9 -99.99 -9.99
2020/01/16 20:42 EST    0.66  -0.07   17  338   24  35.6  37.6 1014.8 33.0  1.027 -99.9 -99.99 -9.99
2020/01/16 20:48 EST    0.72  -0.11   14  337   21  35.6  37.6 1014.8 33.0  1.027 -99.9 -99.99 -9.99
2020/01/16 20:54 EST    0.79  -0.03   14  335   21  35.6  37.6 1014.9 33.0  1.027 -99.9 -99.99 -9.99
2020/01/16 21:00 EST    0.86  -0.01   13  337   21  35.4  37.6 1015.0 33.0  1.027 -99.9 -99.99 -9.99
2020/01/16 21:06 EST    0.93   0.11   13  327   25  35.2  37.6 1015.1 33.0  1.027 -99.9 -99.99 -9.99
2020/01/16 21:12 EST    1.01   0.15   15  336   21  35.2  37.6 1015.2 33.0  1.027 -99.9 -99.99 -9.99
2020/01/16 21:18 EST    1.09   0.24   14  334   26  35.2  37.6 1015.3 33.0  1.027 -99.9 -99.99 -9.99
2020/01/16 21:24 EST    1.17   0.24   14  328   23  34.9  37.4 1015.3 33.0  1.027 -99.9 -99.99 -9.99
2020/01/16 21:30 EST    1.25   0.25   15  338   19  35.1  37.4 1015.4 33.0  1.027 -99.9 -99.99 -9.99
2020/01/16 21:36 EST    1.34   0.46   12  339   19  34.9  37.4 1015.5 33.0  1.027 -99.9 -99.99 -9.99
2020/01/16 21:42 EST    1.43   0.55   15  335   20  34.7  37.4 1015.5 33.0  1.027 -99.9 -99.99 -9.99
2020/01/16 21:48 EST    1.53   0.71   13  331   24  34.5  37.4 1015.6 33.0  1.027 -99.9 -99.99 -9.99
2020/01/16 21:54 EST    1.62   0.79   15  339   21  34.3  37.4 1015.6 33.0  1.027 -99.9 -99.99 -9.99
2020/01/16 22:00 EST    1.72   1.00   12  330   21  34.3  37.4 1015.6 33.0  1.027 -99.9 -99.99 -9.99
2020/01/16 22:06 EST    1.82   1.09   14  318   27  34.3  37.4 1015.6 33.0  1.027 -99.9 -99.99 -9.99
2020/01/16 22:12 EST    1.92   1.13   13  317   19  34.2  37.4 1015.9 33.0  1.027 -99.9 -99.99 -9.99
2020/01/16 22:18 EST    2.02   1.29   12  331   18  34.0  37.4 1016.0 33.0  1.027 -99.9 -99.99 -9.99
2020/01/16 22:24 EST    2.13   1.38   14  322   19  34.0  37.4 1016.0 33.0  1.027 -99.9 -99.99 -9.99
2020/01/16 22:30 EST    2.23   1.57   13  319   19  33.8  37.4 1016.1 33.0  1.027 -99.9 -99.99 -9.99
2020/01/16 22:36 EST    2.34   1.67   14  318   19  33.8  37.4 1016.2 33.0  1.027 -99.9 -99.99 -9.99
2020/01/16 22:42 EST    2.44   1.88   17  317   23  33.6  37.4 1016.2 33.0  1.027 -99.9 -99.99 -9.99
2020/01/16 22:48 EST    2.54   2.03   15  319   23  34.0  37.4 1016.3 33.0  1.027 -99.9 -99.99 -9.99
2020/01/16 22:54 EST    2.64   2.22   15  332   24  33.8  37.4 1016.6 33.0  1.027 -99.9 -99.99 -9.99
2020/01/16 23:00 EST    2.74   2.36   16  316   24  33.4  37.2 1016.6 33.1  1.027 -99.9 -99.99 -9.99
2020/01/16 23:06 EST    2.84   2.43   12  321   23  33.3  37.2 1016.9 33.1  1.027 -99.9 -99.99 -9.99
2020/01/16 23:12 EST    2.93   2.59   14  332   25  33.3  37.2 1017.0 33.1  1.027 -99.9 -99.99 -9.99
2020/01/16 23:18 EST    3.02   2.69   17  319   22  32.5  37.2 1017.0 33.1  1.027 -99.9 -99.99 -9.99
2020/01/16 23:24 EST    3.11   2.86   15  335   24  32.7  37.2 1017.2 33.0  1.027 -99.9 -99.99 -9.99
2020/01/16 23:30 EST    3.20   3.07   16  330   24  32.7  37.2 1017.3 33.0  1.027 -99.9 -99.99 -9.99
2020/01/16 23:36 EST    3.27   3.13   16  336   26  32.5  37.2 1017.5 33.0  1.027 -99.9 -99.99 -9.99
2020/01/16 23:42 EST    3.35   3.19   17  336   25  32.7  37.2 1017.5 33.0  1.027 -99.9 -99.99 -9.99
2020/01/16 23:48 EST    3.42   3.32   20  340   27  32.4  37.2 1017.6 33.0  1.027 -99.9 -99.99 -9.99
2020/01/16 23:54 EST    3.48   3.49   19  336   30  32.2  37.2 1017.8 33.0  1.027 -99.9 -99.99 -9.99
2020/01/17 00:00 EST    3.54   3.52   17  336   25  32.2  37.0 1017.9 33.1  1.027 -99.9 -99.99 -9.99
2020/01/17 00:06 EST    3.59   3.58   16  342   23  32.0  37.0 1017.9 33.1  1.027 -99.9 -99.99 -9.99
2020/01/17 00:12 EST    3.64   3.62   19  341   24  31.8  37.2 1018.1 33.0  1.027 -99.9 -99.99 -9.99
2020/01/17 00:18 EST    3.67   3.65   17  340   23  31.8  37.0 1018.1 33.1  1.027 -99.9 -99.99 -9.99
2020/01/17 00:24 EST    3.71   3.68   20  356   27  31.5  37.0 1018.3 33.1  1.027 -99.9 -99.99 -9.99
2020/01/17 00:30 EST    3.73   3.75   18  350   23  31.3  37.0 1018.4 33.1  1.027 -99.9 -99.99 -9.99
2020/01/17 00:36 EST    3.75   3.81   19  345   27  31.1  37.0 1018.5 33.1  1.027 -99.9 -99.99 -9.99
2020/01/17 00:42 EST    3.76   3.78   19  349   27  30.9  37.2 1018.6 33.0  1.027 -99.9 -99.99 -9.99
2020/01/17 00:48 EST    3.76   3.81   18  337   26  30.9  37.0 1018.7 33.1  1.027 -99.9 -99.99 -9.99
2020/01/17 00:54 EST    3.75   3.79   17  348   25  30.6  37.0 1018.8 33.1  1.027 -99.9 -99.99 -9.99
2020/01/17 01:00 EST    3.74   3.77   19  341   34  30.6  36.9 1018.9 33.0  1.027 -99.9 -99.99 -9.99
2020/01/17 01:06 EST    3.72   3.76   20  345   24  30.4  36.7 1019.2 32.9  1.027 -99.9 -99.99 -9.99
2020/01/17 01:12 EST    3.69   3.65   18  351   28  30.2  36.5 1019.3 33.0  1.027 -99.9 -99.99 -9.99
2020/01/17 01:18 EST    3.66   3.59   18  344   27  30.2  36.3 1019.4 33.0  1.027 -99.9 -99.99 -9.99
2020/01/17 01:24 EST    3.62   3.55   18  350   30  29.7  36.3 1019.6 32.9  1.027 -99.9 -99.99 -9.99
2020/01/17 01:30 EST    3.57   3.46   16  347   27  29.8  36.3 1019.7 32.9  1.027 -99.9 -99.99 -9.99
2020/01/17 01:36 EST    3.51   3.42   19  341   31  29.5  36.3 1019.8 33.0  1.027 -99.9 -99.99 -9.99
2020/01/17 01:42 EST    3.45   3.29   21  341   28  29.5  36.3 1019.9 33.0  1.027 -99.9 -99.99 -9.99
2020/01/17 01:48 EST    3.39   3.18   23  335   31  29.1  36.3 1020.1 32.9  1.027 -99.9 -99.99 -9.99
2020/01/17 01:54 EST    3.32   3.06   26  341   33  28.8  36.1 1020.4 33.0  1.027 -99.9 -99.99 -9.99
2020/01/17 02:00 EST    3.24   3.12   23  338   32  28.6  36.3 1020.7 32.9  1.027 -99.9 -99.99 -9.99
2020/01/17 02:06 EST    3.16   3.02   17  337   39  28.6  36.1 1020.8 33.0  1.027 -99.9 -99.99 -9.99
2020/01/17 02:12 EST    3.07   2.77   21  341   26  28.4  36.1 1021.1 33.0  1.027 -99.9 -99.99 -9.99
2020/01/17 02:18 EST    2.98   2.65   20  347   32  27.9  36.1 1021.3 32.9  1.027 -99.9 -99.99 -9.99
2020/01/17 02:24 EST    2.89   2.59   20  333   29  27.7  36.1 1021.5 33.0  1.027 -99.9 -99.99 -9.99
2020/01/17 02:30 EST    2.79   2.34   20  354   31  27.3  36.1 1021.7 33.0  1.027 -99.9 -99.99 -9.99
2020/01/17 02:36 EST    2.69   2.20   20  339   30  27.1  36.1 1021.7 32.9  1.027 -99.9 -99.99 -9.99
2020/01/17 02:42 EST    2.59   2.04   22  344   28  26.8  36.1 1021.8 32.9  1.027 -99.9 -99.99 -9.99
2020/01/17 02:48 EST    2.48   1.89   22  332   31  26.4  36.1 1021.9 32.9  1.027 -99.9 -99.99 -9.99
2020/01/17 02:54 EST    2.37   1.83   19  342   29  26.2  36.0 1021.9 33.0  1.027 -99.9 -99.99 -9.99
2020/01/17 03:00 EST    2.27   1.64   19  339   27  26.6  36.0 1022.1 33.0  1.027 -99.9 -99.99 -9.99
2020/01/17 03:06 EST    2.16   1.58   19  336   30  26.1  36.0 1022.1 33.0  1.027 -99.9 -99.99 -9.99
2020/01/17 03:12 EST    2.05   1.49   18  334   27  26.1  36.0 1022.1 32.9  1.027 -99.9 -99.99 -9.99
2020/01/17 03:18 EST    1.94   1.33   23  338   29  25.9  36.0 1022.4 33.0  1.027 -99.9 -99.99 -9.99
2020/01/17 03:24 EST    1.84   1.22   21  333   29  25.7  36.0 1022.6 33.0  1.027 -99.9 -99.99 -9.99
2020/01/17 03:30 EST    1.73   1.11   19  341   33  25.7  36.0 1022.8 32.9  1.027 -99.9 -99.99 -9.99
2020/01/17 03:36 EST    1.62   1.00   26  336   36  25.2  36.0 1022.9 32.9  1.027 -99.9 -99.99 -9.99
2020/01/17 03:42 EST    1.52   1.00   20  342   31  25.5  36.0 1022.9 32.9  1.027 -99.9 -99.99 -9.99
2020/01/17 03:48 EST    1.42   0.89   21  338   31  25.3  36.0 1023.0 32.9  1.027 -99.9 -99.99 -9.99
2020/01/17 03:54 EST    1.32   0.76   21  342   29  25.0  36.0 1023.3 32.9  1.027 -99.9 -99.99 -9.99
2020/01/17 04:00 EST    1.23   0.68   22  337   29  24.8  35.8 1023.4 33.0  1.027 -99.9 -99.99 -9.99
2020/01/17 04:06 EST    1.14   0.55   19  341   29  24.8  35.8 1023.6 33.0  1.027 -99.9 -99.99 -9.99
2020/01/17 04:12 EST    1.05   0.59   16  336   27  24.8  35.8 1023.6 33.0  1.027 -99.9 -99.99 -9.99
2020/01/17 04:18 EST    0.97   0.52   17  338   25  24.8  35.8 1023.8 33.0  1.027 -99.9 -99.99 -9.99
2020/01/17 04:24 EST    0.89   0.38   15  331   25  24.6  35.8 1024.0 33.0  1.027 -99.9 -99.99 -9.99
2020/01/17 04:30 EST    0.81   0.30   15  332   21  24.6  35.8 1024.2 33.0  1.027 -99.9 -99.99 -9.99
2020/01/17 04:36 EST    0.74   0.21   16  334   23  24.4  35.8 1024.3 33.0  1.027 -99.9 -99.99 -9.99
2020/01/17 04:42 EST    0.67   0.16   18  330   26  24.3  35.8 1024.3 33.1  1.027 -99.9 -99.99 -9.99
2020/01/17 04:48 EST    0.61   0.31   20  337   28  23.9  36.0 1024.5 33.0  1.027 -99.9 -99.99 -9.99
2020/01/17 04:54 EST    0.56   0.14   24  343   30  24.1  36.0 1024.7 33.0  1.027 -99.9 -99.99 -9.99
2020/01/17 05:00 EST    0.50   0.12   22  341   35  23.7  36.0 1024.9 33.0  1.027 -99.9 -99.99 -9.99
2020/01/17 05:06 EST    0.46   0.07   24  341   31  23.5  36.0 1025.2 33.0  1.027 -99.9 -99.99 -9.99
2020/01/17 05:12 EST    0.41   0.12   19  344   28  23.7  35.8 1025.3 33.0  1.027 -99.9 -99.99 -9.99
2020/01/17 05:18 EST    0.37   0.11   19  348   28  23.4  35.8 1025.4 33.1  1.027 -99.9 -99.99 -9.99
2020/01/17 05:24 EST    0.34   0.08   16  346   24  23.5  35.8 1025.7 33.0  1.027 -99.9 -99.99 -9.99
2020/01/17 05:30 EST    0.31   0.09   19  334   28  23.7  35.8 1025.9 33.0  1.027 -99.9 -99.99 -9.99
2020/01/17 05:36 EST    0.28   0.08   19  338   29  23.2  35.8 1026.1 33.0  1.027 -99.9 -99.99 -9.99
2020/01/17 05:42 EST    0.26   0.01   20  343   30  23.4  35.8 1026.4 33.0  1.027 -99.9 -99.99 -9.99
2020/01/17 05:48 EST    0.24  -0.02   22  339   30  23.0  35.8 1026.4 33.0  1.027 -99.9 -99.99 -9.99
2020/01/17 05:54 EST    0.23   0.09   19  340   28  23.5  35.6 1026.6 33.1  1.027 -99.9 -99.99 -9.99
2020/01/17 06:00 EST    0.22   0.16   24  339   32  22.8  35.6 1026.7 33.1  1.027 -99.9 -99.99 -9.99
2020/01/17 06:06 EST    0.21   0.16   21  347   31  23.0  35.6 1026.8 33.1  1.027 -99.9 -99.99 -9.99
2020/01/17 06:12 EST    0.20   0.29   19  340   29  23.2  35.6 1027.0 33.1  1.027 -99.9 -99.99 -9.99
2020/01/17 06:18 EST    0.19   0.23   21  339   29  22.3  35.6 1027.1 33.1  1.027 -99.9 -99.99 -9.99
2020/01/17 06:24 EST    0.19   0.29   18  344   29  22.6  35.6 1027.4 33.1  1.027 -99.9 -99.99 -9.99
2020/01/17 06:30 EST    0.19   0.40   20  341   29  22.1  35.6 1027.6 33.1  1.027 -99.9 -99.99 -9.99
2020/01/17 06:36 EST    0.19   0.29   20  337   28  21.9  35.6 1027.7 33.1  1.027 -99.9 -99.99 -9.99
2020/01/17 06:42 EST    0.19   0.32   19  338   29  22.1  35.6 1027.6 33.1  1.027 -99.9 -99.99 -9.99
2020/01/17 06:48 EST    0.20   0.43   19  339   28  21.7  35.6 1027.8 33.1  1.027 -99.9 -99.99 -9.99
2020/01/17 06:54 EST    0.20   0.20   20  341   30  21.7  35.6 1028.1 33.2  1.027 -99.9 -99.99 -9.99
2020/01/17 07:00 EST    0.21   0.31   19  344   30  21.9  35.6 1028.3 33.1  1.027 -99.9 -99.99 -9.99
2020/01/17 07:06 EST    0.22   0.42   19  341   28  21.7  35.4 1028.4 33.1  1.027 -99.9 -99.99 -9.99
2020/01/17 07:12 EST    0.22   0.25   21  338   29  21.4  35.4 1028.6 33.2  1.027 -99.9 -99.99 -9.99
2020/01/17 07:18 EST    0.23   0.33   28  347   34  20.8  35.4 1028.9 33.1  1.027 -99.9 -99.99 -9.99
2020/01/17 07:24 EST    0.24   0.53   23  350   33  20.7  35.4 1029.0 33.1  1.027 -99.9 -99.99 -9.99
2020/01/17 07:30 EST    0.25   0.49   17  338   32  21.0  35.4 1029.0 33.1  1.027 -99.9 -99.99 -9.99
2020/01/17 07:36 EST    0.27   0.36   19  341   26  20.8  35.4 1029.3 33.1  1.027 -99.9 -99.99 -9.99
2020/01/17 07:42 EST    0.28   0.35   20  333   26  20.7  35.4 1029.4 33.1  1.027 -99.9 -99.99 -9.99
2020/01/17 07:48 EST    0.30   0.36   19  341   28  20.7  35.4 1029.3 33.1  1.027 -99.9 -99.99 -9.99
2020/01/17 07:54 EST    0.31   0.46   19  342   31  20.5  35.4 1029.5 33.1  1.027 -99.9 -99.99 -9.99
2020/01/17 08:00 EST    0.33   0.45   17  336   28  20.8  35.4 1029.5 33.1  1.027 -99.9 -99.99 -9.99
2020/01/17 08:06 EST    0.35   0.53   17  333   29  20.8  35.2 1029.7 33.2  1.027 -99.9 -99.99 -9.99
2020/01/17 08:12 EST    0.37   0.49   18  334   26  20.3  35.2 1030.0 33.2  1.027 -99.9 -99.99 -9.99
2020/01/17 08:18 EST    0.39   0.53   19  342   29  20.1  35.2 1030.3 33.2  1.027 -99.9 -99.99 -9.99
2020/01/17 08:24 EST    0.42   0.62   18  336   28  20.1  35.2 1030.3 33.2  1.027 -99.9 -99.99 -9.99
2020/01/17 08:30 EST    0.45   0.54   21  334   30  20.1  35.2 1030.4 33.2  1.027 -99.9 -99.99 -9.99
2020/01/17 08:36 EST    0.48   0.59   19  351   29  20.5  35.2 1030.5 33.2  1.027 -99.9 -99.99 -9.99
2020/01/17 08:42 EST    0.51   0.47   16  337   26  20.1  35.2 1030.4 33.2  1.027 -99.9 -99.99 -9.99
2020/01/17 08:48 EST    0.55   0.68   20  336   27  20.1  35.1 1030.7 33.2  1.027 -99.9 -99.99 -9.99
2020/01/17 08:54 EST    0.59   0.61   17  345   29  20.7  35.1 1030.8 33.2  1.028 -99.9 -99.99 -9.99
2020/01/17 09:00 EST    0.63   0.66   18  342   29  20.3  35.1 1031.0 33.2  1.027 -99.9 -99.99 -9.99
2020/01/17 09:06 EST    0.68   0.60   20  336   27  20.1  35.1 1031.2 33.2  1.027 -99.9 -99.99 -9.99
2020/01/17 09:12 EST    0.73   0.76   19  352   30  20.3  35.1 1031.3 33.2  1.027 -99.9 -99.99 -9.99
2020/01/17 09:18 EST    0.78   0.69   20  351   28  19.9  35.1 1031.6 33.2  1.027 -99.9 -99.99 -9.99
2020/01/17 09:24 EST    0.83   0.81   21  337   29  20.1  35.1 1031.6 33.2  1.027 -99.9 -99.99 -9.99
2020/01/17 09:30 EST    0.89   0.86   24  345   35  19.9  35.1 1031.7 33.2  1.027 -99.9 -99.99 -9.99
2020/01/17 09:36 EST    0.95   0.76   21  343   31  20.1  35.1 1031.8 33.2  1.027 -99.9 -99.99 -9.99
2020/01/17 09:42 EST    1.02   0.88   17  352   28  20.1  35.1 1031.9 33.2  1.027 -99.9 -99.99 -9.99
2020/01/17 09:48 EST    1.09   0.86   17  344   29  19.9  35.1 1032.2 33.2  1.027 -99.9 -99.99 -9.99
2020/01/17 09:54 EST    1.16   0.94   15  357   24  20.5  35.1 1032.2 33.2  1.027 -99.9 -99.99 -9.99
2020/01/17 10:00 EST    1.23   1.05   18  336   27  20.3  35.1 1032.2 33.2  1.027 -99.9 -99.99 -9.99
2020/01/17 10:06 EST    1.31   1.05   19  337   27  20.3  35.2 1032.4 33.2  1.027 -99.9 -99.99 -9.99
2020/01/17 10:12 EST    1.39   1.20   18  349   27  20.1  35.2 1032.4 33.2  1.027 -99.9 -99.99 -9.99
2020/01/17 10:18 EST    1.47   1.28   17  345   26  20.5  35.1 1032.5 33.3  1.028 -99.9 -99.99 -9.99
2020/01/17 10:24 EST    1.56   1.28   17  337   24  20.8  35.2 1032.5 33.2  1.027 -99.9 -99.99 -9.99
2020/01/17 10:30 EST    1.64   1.37   19  339   27  20.8  35.2 1032.7 33.2  1.027 -99.9 -99.99 -9.99
2020/01/17 10:36 EST    1.73   1.57   19  339   26  20.7  35.2 1032.5 33.2  1.027 -99.9 -99.99 -9.99
2020/01/17 10:42 EST    1.82   1.61   20  335   27  21.0  35.2 1032.6 33.2  1.027 -99.9 -99.99 -9.99
2020/01/17 10:48 EST    1.91   1.78   18  336   27  21.0  35.2 1032.6 33.2  1.027 -99.9 -99.99 -9.99
2020/01/17 10:54 EST    2.00   1.88   17  342   25  21.4  35.2 1032.9 33.2  1.027 -99.9 -99.99 -9.99
2020/01/17 11:00 EST    2.09   1.94   18  333   25  20.8  35.2 1032.9 33.2  1.027 -99.9 -99.99 -9.99
2020/01/17 11:06 EST    2.18   2.14   19  343   24  21.6  35.2 1033.0 33.2  1.027 -99.9 -99.99 -9.99
2020/01/17 11:12 EST    2.27   2.25   16  339   25  21.6  35.2 1032.9 33.2  1.027 -99.9 -99.99 -9.99
2020/01/17 11:18 EST    2.36   2.29   18  336   26  21.9  35.2 1032.9 33.2  1.027 -99.9 -99.99 -9.99
2020/01/17 11:24 EST    2.44   2.46   19  336   27  21.7  35.2 1033.0 33.2  1.027 -99.9 -99.99 -9.99
2020/01/17 11:30 EST    2.53   2.58   18  359   26  21.7  35.2 1033.0 33.2  1.027 -99.9 -99.99 -9.99
2020/01/17 11:36 EST    2.61   2.74   15  341   24  22.3  35.1 1032.9 33.1  1.027 -99.9 -99.99 -9.99
2020/01/17 11:42 EST    2.69   2.84   15  338   24  22.1  35.1 1032.8 33.1  1.027 -99.9 -99.99 -9.99
2020/01/17 11:48 EST    2.77 -99.99 -999 -999 -999 -99.9 -99.9 -999.9 -9.9 -9.999 -99.9 -99.99 -9.99